<?xml version="1.0" encoding="UTF-8" standalone="no" ?>
<gpx xmlns="http://www.topografix.com/GPX/1/1" xmlns:xsi="http://www.w3.org/2001/XMLSchema-instance" xsi:schemaLocation="http://www.topografix.com/GPX/1/1 http://www.topografix.com/GPX/1/1/gpx.xsd" version="1.1" creator="VisuGPX - https://www.visugpx.com">
  <metadata>
    <name>Chantelle - Au fil de la Bouble</name>
    <desc><![CDATA[Randonnée de 9km en boucle à partir de Chantelle]]></desc>
  </metadata>
  <trk>
    <name><![CDATA[Chantelle - Au fil de la Bouble_R]]></name>
    <trkseg>
      <trkpt lat="46.2392" lon="3.15298">
        <ele>346.22</ele>
        <time>2017-08-27T08:07:05Z</time>
      </trkpt>
      <trkpt lat="46.2392" lon="3.15298">
        <ele>346.22</ele>
        <time>2017-08-27T08:07:06Z</time>
      </trkpt>
      <trkpt lat="46.23923" lon="3.15296">
        <ele>343.75</ele>
        <time>2017-08-27T08:07:11Z</time>
      </trkpt>
      <trkpt lat="46.23919" lon="3.15302">
        <ele>344.29</ele>
        <time>2017-08-27T08:07:33Z</time>
      </trkpt>
      <trkpt lat="46.23916" lon="3.15302">
        <ele>343.87</ele>
        <time>2017-08-27T08:07:51Z</time>
      </trkpt>
      <trkpt lat="46.23915" lon="3.15302">
        <ele>343.23</ele>
        <time>2017-08-27T08:08:17Z</time>
      </trkpt>
      <trkpt lat="46.23917" lon="3.15303">
        <ele>343.68</ele>
        <time>2017-08-27T08:08:32Z</time>
      </trkpt>
      <trkpt lat="46.23916" lon="3.15302">
        <ele>343.39</ele>
        <time>2017-08-27T08:08:48Z</time>
      </trkpt>
      <trkpt lat="46.23912" lon="3.15291">
        <ele>343.44</ele>
        <time>2017-08-27T08:09:04Z</time>
      </trkpt>
      <trkpt lat="46.23912" lon="3.15291">
        <ele>343.2</ele>
        <time>2017-08-27T08:09:26Z</time>
      </trkpt>
      <trkpt lat="46.23913" lon="3.15291">
        <ele>342.83</ele>
        <time>2017-08-27T08:09:55Z</time>
      </trkpt>
      <trkpt lat="46.23913" lon="3.1529">
        <ele>343.3</ele>
        <time>2017-08-27T08:09:59Z</time>
      </trkpt>
      <trkpt lat="46.23912" lon="3.15284">
        <ele>342.71</ele>
        <time>2017-08-27T08:10:07Z</time>
      </trkpt>
      <trkpt lat="46.23905" lon="3.1525">
        <ele>342.01</ele>
        <time>2017-08-27T08:10:31Z</time>
      </trkpt>
      <trkpt lat="46.23888" lon="3.15228">
        <ele>340.79</ele>
        <time>2017-08-27T08:10:52Z</time>
      </trkpt>
      <trkpt lat="46.23873" lon="3.15216">
        <ele>340.38</ele>
        <time>2017-08-27T08:11:10Z</time>
      </trkpt>
      <trkpt lat="46.23863" lon="3.1521">
        <ele>339.48</ele>
        <time>2017-08-27T08:11:21Z</time>
      </trkpt>
      <trkpt lat="46.23851" lon="3.15188">
        <ele>338.85</ele>
        <time>2017-08-27T08:11:35Z</time>
      </trkpt>
      <trkpt lat="46.23847" lon="3.15186">
        <ele>338.54</ele>
        <time>2017-08-27T08:11:40Z</time>
      </trkpt>
      <trkpt lat="46.23845" lon="3.15185">
        <ele>338.55</ele>
        <time>2017-08-27T08:11:42Z</time>
      </trkpt>
      <trkpt lat="46.23832" lon="3.15173">
        <ele>337.58</ele>
        <time>2017-08-27T08:11:54Z</time>
      </trkpt>
      <trkpt lat="46.23818" lon="3.15167">
        <ele>337.46</ele>
        <time>2017-08-27T08:12:08Z</time>
      </trkpt>
      <trkpt lat="46.23803" lon="3.15156">
        <ele>337</ele>
        <time>2017-08-27T08:12:23Z</time>
      </trkpt>
      <trkpt lat="46.2379" lon="3.15146">
        <ele>336.53</ele>
        <time>2017-08-27T08:12:37Z</time>
      </trkpt>
      <trkpt lat="46.23785" lon="3.15137">
        <ele>336.07</ele>
        <time>2017-08-27T08:12:49Z</time>
      </trkpt>
      <trkpt lat="46.23775" lon="3.15131">
        <ele>335.67</ele>
        <time>2017-08-27T08:12:59Z</time>
      </trkpt>
      <trkpt lat="46.23769" lon="3.15126">
        <ele>335.23</ele>
        <time>2017-08-27T08:13:07Z</time>
      </trkpt>
      <trkpt lat="46.23759" lon="3.15122">
        <ele>335.06</ele>
        <time>2017-08-27T08:13:16Z</time>
      </trkpt>
      <trkpt lat="46.23748" lon="3.15108">
        <ele>335.09</ele>
        <time>2017-08-27T08:13:28Z</time>
      </trkpt>
      <trkpt lat="46.23735" lon="3.15093">
        <ele>334.91</ele>
        <time>2017-08-27T08:13:42Z</time>
      </trkpt>
      <trkpt lat="46.2372" lon="3.15077">
        <ele>334.44</ele>
        <time>2017-08-27T08:13:57Z</time>
      </trkpt>
      <trkpt lat="46.23713" lon="3.15071">
        <ele>333.93</ele>
        <time>2017-08-27T08:14:05Z</time>
      </trkpt>
      <trkpt lat="46.23704" lon="3.15061">
        <ele>334.37</ele>
        <time>2017-08-27T08:14:13Z</time>
      </trkpt>
      <trkpt lat="46.23691" lon="3.15047">
        <ele>334.12</ele>
        <time>2017-08-27T08:14:28Z</time>
      </trkpt>
      <trkpt lat="46.23679" lon="3.15032">
        <ele>333.53</ele>
        <time>2017-08-27T08:14:42Z</time>
      </trkpt>
      <trkpt lat="46.23666" lon="3.15014">
        <ele>333.73</ele>
        <time>2017-08-27T08:14:56Z</time>
      </trkpt>
      <trkpt lat="46.23655" lon="3.15">
        <ele>333.82</ele>
        <time>2017-08-27T08:15:10Z</time>
      </trkpt>
      <trkpt lat="46.2364" lon="3.14975">
        <ele>333.62</ele>
        <time>2017-08-27T08:15:31Z</time>
      </trkpt>
      <trkpt lat="46.23624" lon="3.14958">
        <ele>333.58</ele>
        <time>2017-08-27T08:15:46Z</time>
      </trkpt>
      <trkpt lat="46.23614" lon="3.14938">
        <ele>333.6</ele>
        <time>2017-08-27T08:15:59Z</time>
      </trkpt>
      <trkpt lat="46.23611" lon="3.14935">
        <ele>333.68</ele>
        <time>2017-08-27T08:16:02Z</time>
      </trkpt>
      <trkpt lat="46.23604" lon="3.14929">
        <ele>333.6</ele>
        <time>2017-08-27T08:16:17Z</time>
      </trkpt>
      <trkpt lat="46.23609" lon="3.14926">
        <ele>332.97</ele>
        <time>2017-08-27T08:16:36Z</time>
      </trkpt>
      <trkpt lat="46.2361" lon="3.14927">
        <ele>331.95</ele>
        <time>2017-08-27T08:16:43Z</time>
      </trkpt>
      <trkpt lat="46.23624" lon="3.14925">
        <ele>330.63</ele>
        <time>2017-08-27T08:16:59Z</time>
      </trkpt>
      <trkpt lat="46.23639" lon="3.14924">
        <ele>329.51</ele>
        <time>2017-08-27T08:17:11Z</time>
      </trkpt>
      <trkpt lat="46.23656" lon="3.14921">
        <ele>328.26</ele>
        <time>2017-08-27T08:17:26Z</time>
      </trkpt>
      <trkpt lat="46.23659" lon="3.14921">
        <ele>327.32</ele>
        <time>2017-08-27T08:17:29Z</time>
      </trkpt>
      <trkpt lat="46.23672" lon="3.14917">
        <ele>325.75</ele>
        <time>2017-08-27T08:17:40Z</time>
      </trkpt>
      <trkpt lat="46.23674" lon="3.14907">
        <ele>324.13</ele>
        <time>2017-08-27T08:17:49Z</time>
      </trkpt>
      <trkpt lat="46.23674" lon="3.14893">
        <ele>320.69</ele>
        <time>2017-08-27T08:18:01Z</time>
      </trkpt>
      <trkpt lat="46.23677" lon="3.14887">
        <ele>318.87</ele>
        <time>2017-08-27T08:18:13Z</time>
      </trkpt>
      <trkpt lat="46.23687" lon="3.14896">
        <ele>316.44</ele>
        <time>2017-08-27T08:18:28Z</time>
      </trkpt>
      <trkpt lat="46.23693" lon="3.14905">
        <ele>314.76</ele>
        <time>2017-08-27T08:18:43Z</time>
      </trkpt>
      <trkpt lat="46.23698" lon="3.14905">
        <ele>312.82</ele>
        <time>2017-08-27T08:18:52Z</time>
      </trkpt>
      <trkpt lat="46.237" lon="3.14902">
        <ele>311.71</ele>
        <time>2017-08-27T08:18:55Z</time>
      </trkpt>
      <trkpt lat="46.23702" lon="3.14898">
        <ele>310.78</ele>
        <time>2017-08-27T08:18:59Z</time>
      </trkpt>
      <trkpt lat="46.237" lon="3.14887">
        <ele>309.47</ele>
        <time>2017-08-27T08:19:07Z</time>
      </trkpt>
      <trkpt lat="46.237" lon="3.14875">
        <ele>305.77</ele>
        <time>2017-08-27T08:19:27Z</time>
      </trkpt>
      <trkpt lat="46.23698" lon="3.1486">
        <ele>304.23</ele>
        <time>2017-08-27T08:19:43Z</time>
      </trkpt>
      <trkpt lat="46.23693" lon="3.14842">
        <ele>300.86</ele>
        <time>2017-08-27T08:19:56Z</time>
      </trkpt>
      <trkpt lat="46.23693" lon="3.1484">
        <ele>300.64</ele>
        <time>2017-08-27T08:19:57Z</time>
      </trkpt>
      <trkpt lat="46.23692" lon="3.14832">
        <ele>298.84</ele>
        <time>2017-08-27T08:20:04Z</time>
      </trkpt>
      <trkpt lat="46.23691" lon="3.14814">
        <ele>295.78</ele>
        <time>2017-08-27T08:20:18Z</time>
      </trkpt>
      <trkpt lat="46.23693" lon="3.14802">
        <ele>293.51</ele>
        <time>2017-08-27T08:20:39Z</time>
      </trkpt>
      <trkpt lat="46.23693" lon="3.14788">
        <ele>289.88</ele>
        <time>2017-08-27T08:20:51Z</time>
      </trkpt>
      <trkpt lat="46.23711" lon="3.14791">
        <ele>288.13</ele>
        <time>2017-08-27T08:21:11Z</time>
      </trkpt>
      <trkpt lat="46.23723" lon="3.14791">
        <ele>288.38</ele>
        <time>2017-08-27T08:21:30Z</time>
      </trkpt>
      <trkpt lat="46.23718" lon="3.14803">
        <ele>287.95</ele>
        <time>2017-08-27T08:22:26Z</time>
      </trkpt>
      <trkpt lat="46.23727" lon="3.14812">
        <ele>288.93</ele>
        <time>2017-08-27T08:23:09Z</time>
      </trkpt>
      <trkpt lat="46.23727" lon="3.14812">
        <ele>289.11</ele>
        <time>2017-08-27T08:23:10Z</time>
      </trkpt>
      <trkpt lat="46.23735" lon="3.14836">
        <ele>288.68</ele>
        <time>2017-08-27T08:23:29Z</time>
      </trkpt>
      <trkpt lat="46.23744" lon="3.14858">
        <ele>287.19</ele>
        <time>2017-08-27T08:23:46Z</time>
      </trkpt>
      <trkpt lat="46.23757" lon="3.14874">
        <ele>289.17</ele>
        <time>2017-08-27T08:24:04Z</time>
      </trkpt>
      <trkpt lat="46.23766" lon="3.14888">
        <ele>289.36</ele>
        <time>2017-08-27T08:24:16Z</time>
      </trkpt>
      <trkpt lat="46.23778" lon="3.14908">
        <ele>289.16</ele>
        <time>2017-08-27T08:24:30Z</time>
      </trkpt>
      <trkpt lat="46.23783" lon="3.14918">
        <ele>288.8</ele>
        <time>2017-08-27T08:24:42Z</time>
      </trkpt>
      <trkpt lat="46.23795" lon="3.14929">
        <ele>288.68</ele>
        <time>2017-08-27T08:24:55Z</time>
      </trkpt>
      <trkpt lat="46.23805" lon="3.14914">
        <ele>291.74</ele>
        <time>2017-08-27T08:25:10Z</time>
      </trkpt>
      <trkpt lat="46.23813" lon="3.14907">
        <ele>294.76</ele>
        <time>2017-08-27T08:25:22Z</time>
      </trkpt>
      <trkpt lat="46.23819" lon="3.149">
        <ele>297.93</ele>
        <time>2017-08-27T08:25:36Z</time>
      </trkpt>
      <trkpt lat="46.23819" lon="3.14899">
        <ele>297.02</ele>
        <time>2017-08-27T08:26:03Z</time>
      </trkpt>
      <trkpt lat="46.23813" lon="3.14895">
        <ele>297.84</ele>
        <time>2017-08-27T08:26:30Z</time>
      </trkpt>
      <trkpt lat="46.2381" lon="3.14884">
        <ele>301.05</ele>
        <time>2017-08-27T08:26:46Z</time>
      </trkpt>
      <trkpt lat="46.2381" lon="3.14864">
        <ele>303.12</ele>
        <time>2017-08-27T08:27:05Z</time>
      </trkpt>
      <trkpt lat="46.23817" lon="3.14848">
        <ele>306.41</ele>
        <time>2017-08-27T08:27:21Z</time>
      </trkpt>
      <trkpt lat="46.23825" lon="3.14833">
        <ele>307.88</ele>
        <time>2017-08-27T08:27:37Z</time>
      </trkpt>
      <trkpt lat="46.23834" lon="3.14817">
        <ele>311.01</ele>
        <time>2017-08-27T08:27:52Z</time>
      </trkpt>
      <trkpt lat="46.23839" lon="3.148">
        <ele>314.65</ele>
        <time>2017-08-27T08:28:11Z</time>
      </trkpt>
      <trkpt lat="46.23841" lon="3.14791">
        <ele>315.53</ele>
        <time>2017-08-27T08:28:28Z</time>
      </trkpt>
      <trkpt lat="46.23836" lon="3.14774">
        <ele>316.32</ele>
        <time>2017-08-27T08:28:45Z</time>
      </trkpt>
      <trkpt lat="46.23836" lon="3.14758">
        <ele>316.96</ele>
        <time>2017-08-27T08:28:57Z</time>
      </trkpt>
      <trkpt lat="46.23836" lon="3.14744">
        <ele>317.74</ele>
        <time>2017-08-27T08:29:08Z</time>
      </trkpt>
      <trkpt lat="46.23838" lon="3.14737">
        <ele>317.89</ele>
        <time>2017-08-27T08:29:13Z</time>
      </trkpt>
      <trkpt lat="46.23837" lon="3.14724">
        <ele>318.83</ele>
        <time>2017-08-27T08:29:28Z</time>
      </trkpt>
      <trkpt lat="46.23837" lon="3.14722">
        <ele>319.19</ele>
        <time>2017-08-27T08:29:50Z</time>
      </trkpt>
      <trkpt lat="46.23838" lon="3.14726">
        <ele>318.69</ele>
        <time>2017-08-27T08:30:20Z</time>
      </trkpt>
      <trkpt lat="46.23836" lon="3.14724">
        <ele>318.57</ele>
        <time>2017-08-27T08:30:46Z</time>
      </trkpt>
      <trkpt lat="46.23837" lon="3.14713">
        <ele>318.96</ele>
        <time>2017-08-27T08:31:03Z</time>
      </trkpt>
      <trkpt lat="46.23842" lon="3.14711">
        <ele>319.14</ele>
        <time>2017-08-27T08:31:19Z</time>
      </trkpt>
      <trkpt lat="46.23838" lon="3.14711">
        <ele>319.02</ele>
        <time>2017-08-27T08:31:49Z</time>
      </trkpt>
      <trkpt lat="46.23839" lon="3.14698">
        <ele>319.08</ele>
        <time>2017-08-27T08:32:01Z</time>
      </trkpt>
      <trkpt lat="46.23839" lon="3.14693">
        <ele>319.31</ele>
        <time>2017-08-27T08:32:04Z</time>
      </trkpt>
      <trkpt lat="46.23842" lon="3.14675">
        <ele>320.17</ele>
        <time>2017-08-27T08:32:19Z</time>
      </trkpt>
      <trkpt lat="46.23844" lon="3.14667">
        <ele>320.92</ele>
        <time>2017-08-27T08:32:25Z</time>
      </trkpt>
      <trkpt lat="46.23844" lon="3.14663">
        <ele>321.72</ele>
        <time>2017-08-27T08:32:28Z</time>
      </trkpt>
      <trkpt lat="46.23849" lon="3.14643">
        <ele>322.06</ele>
        <time>2017-08-27T08:32:43Z</time>
      </trkpt>
      <trkpt lat="46.2385" lon="3.14639">
        <ele>322.86</ele>
        <time>2017-08-27T08:32:46Z</time>
      </trkpt>
      <trkpt lat="46.2386" lon="3.14625">
        <ele>324.11</ele>
        <time>2017-08-27T08:32:57Z</time>
      </trkpt>
      <trkpt lat="46.23873" lon="3.14605">
        <ele>323.36</ele>
        <time>2017-08-27T08:33:13Z</time>
      </trkpt>
      <trkpt lat="46.23875" lon="3.14601">
        <ele>323.11</ele>
        <time>2017-08-27T08:33:17Z</time>
      </trkpt>
      <trkpt lat="46.23883" lon="3.14585">
        <ele>322.52</ele>
        <time>2017-08-27T08:33:31Z</time>
      </trkpt>
      <trkpt lat="46.23896" lon="3.14563">
        <ele>323.1</ele>
        <time>2017-08-27T08:33:50Z</time>
      </trkpt>
      <trkpt lat="46.23907" lon="3.14547">
        <ele>324.11</ele>
        <time>2017-08-27T08:34:09Z</time>
      </trkpt>
      <trkpt lat="46.23921" lon="3.14525">
        <ele>325.24</ele>
        <time>2017-08-27T08:34:29Z</time>
      </trkpt>
      <trkpt lat="46.23935" lon="3.14504">
        <ele>326.12</ele>
        <time>2017-08-27T08:34:45Z</time>
      </trkpt>
      <trkpt lat="46.23946" lon="3.14488">
        <ele>326.91</ele>
        <time>2017-08-27T08:34:58Z</time>
      </trkpt>
      <trkpt lat="46.23957" lon="3.14471">
        <ele>326.05</ele>
        <time>2017-08-27T08:35:12Z</time>
      </trkpt>
      <trkpt lat="46.23972" lon="3.14453">
        <ele>325.34</ele>
        <time>2017-08-27T08:35:26Z</time>
      </trkpt>
      <trkpt lat="46.23986" lon="3.14431">
        <ele>324.61</ele>
        <time>2017-08-27T08:35:44Z</time>
      </trkpt>
      <trkpt lat="46.23996" lon="3.14416">
        <ele>325.21</ele>
        <time>2017-08-27T08:35:59Z</time>
      </trkpt>
      <trkpt lat="46.24003" lon="3.14414">
        <ele>325.61</ele>
        <time>2017-08-27T08:36:06Z</time>
      </trkpt>
      <trkpt lat="46.24022" lon="3.14418">
        <ele>327.31</ele>
        <time>2017-08-27T08:36:21Z</time>
      </trkpt>
      <trkpt lat="46.24038" lon="3.14429">
        <ele>328.52</ele>
        <time>2017-08-27T08:36:37Z</time>
      </trkpt>
      <trkpt lat="46.24051" lon="3.14444">
        <ele>329.53</ele>
        <time>2017-08-27T08:36:51Z</time>
      </trkpt>
      <trkpt lat="46.24061" lon="3.14457">
        <ele>330.8</ele>
        <time>2017-08-27T08:37:04Z</time>
      </trkpt>
      <trkpt lat="46.24074" lon="3.1447">
        <ele>331.9</ele>
        <time>2017-08-27T08:37:19Z</time>
      </trkpt>
      <trkpt lat="46.24077" lon="3.14472">
        <ele>332.41</ele>
        <time>2017-08-27T08:37:22Z</time>
      </trkpt>
      <trkpt lat="46.24089" lon="3.14477">
        <ele>332.07</ele>
        <time>2017-08-27T08:37:37Z</time>
      </trkpt>
      <trkpt lat="46.24094" lon="3.14477">
        <ele>332.17</ele>
        <time>2017-08-27T08:37:41Z</time>
      </trkpt>
      <trkpt lat="46.24109" lon="3.14479">
        <ele>331.32</ele>
        <time>2017-08-27T08:37:57Z</time>
      </trkpt>
      <trkpt lat="46.24125" lon="3.14484">
        <ele>332.26</ele>
        <time>2017-08-27T08:38:12Z</time>
      </trkpt>
      <trkpt lat="46.24138" lon="3.14486">
        <ele>332.51</ele>
        <time>2017-08-27T08:38:24Z</time>
      </trkpt>
      <trkpt lat="46.24159" lon="3.14493">
        <ele>333.32</ele>
        <time>2017-08-27T08:38:47Z</time>
      </trkpt>
      <trkpt lat="46.24182" lon="3.14496">
        <ele>332.95</ele>
        <time>2017-08-27T08:39:03Z</time>
      </trkpt>
      <trkpt lat="46.24197" lon="3.14503">
        <ele>333.2</ele>
        <time>2017-08-27T08:39:20Z</time>
      </trkpt>
      <trkpt lat="46.24199" lon="3.14507">
        <ele>333.55</ele>
        <time>2017-08-27T08:39:27Z</time>
      </trkpt>
      <trkpt lat="46.24207" lon="3.14533">
        <ele>336.85</ele>
        <time>2017-08-27T08:39:45Z</time>
      </trkpt>
      <trkpt lat="46.24217" lon="3.14565">
        <ele>338.88</ele>
        <time>2017-08-27T08:40:07Z</time>
      </trkpt>
      <trkpt lat="46.24223" lon="3.14583">
        <ele>339.66</ele>
        <time>2017-08-27T08:40:22Z</time>
      </trkpt>
      <trkpt lat="46.24226" lon="3.14593">
        <ele>340.9</ele>
        <time>2017-08-27T08:40:33Z</time>
      </trkpt>
      <trkpt lat="46.24231" lon="3.14608">
        <ele>342.01</ele>
        <time>2017-08-27T08:40:48Z</time>
      </trkpt>
      <trkpt lat="46.24236" lon="3.1462">
        <ele>342.02</ele>
        <time>2017-08-27T08:41:08Z</time>
      </trkpt>
      <trkpt lat="46.24239" lon="3.14629">
        <ele>341.88</ele>
        <time>2017-08-27T08:41:16Z</time>
      </trkpt>
      <trkpt lat="46.24246" lon="3.14654">
        <ele>342.67</ele>
        <time>2017-08-27T08:41:31Z</time>
      </trkpt>
      <trkpt lat="46.24252" lon="3.14677">
        <ele>343.81</ele>
        <time>2017-08-27T08:41:48Z</time>
      </trkpt>
      <trkpt lat="46.24259" lon="3.14699">
        <ele>344.38</ele>
        <time>2017-08-27T08:42:02Z</time>
      </trkpt>
      <trkpt lat="46.2426" lon="3.14711">
        <ele>343.4</ele>
        <time>2017-08-27T08:42:18Z</time>
      </trkpt>
      <trkpt lat="46.24264" lon="3.14711">
        <ele>344.07</ele>
        <time>2017-08-27T08:42:37Z</time>
      </trkpt>
      <trkpt lat="46.24265" lon="3.14711">
        <ele>343.82</ele>
        <time>2017-08-27T08:42:38Z</time>
      </trkpt>
      <trkpt lat="46.24269" lon="3.14713">
        <ele>344.39</ele>
        <time>2017-08-27T08:42:54Z</time>
      </trkpt>
      <trkpt lat="46.24273" lon="3.14713">
        <ele>344.96</ele>
        <time>2017-08-27T08:43:01Z</time>
      </trkpt>
      <trkpt lat="46.2428" lon="3.14714">
        <ele>344.77</ele>
        <time>2017-08-27T08:43:14Z</time>
      </trkpt>
      <trkpt lat="46.24282" lon="3.14714">
        <ele>345.59</ele>
        <time>2017-08-27T08:43:16Z</time>
      </trkpt>
      <trkpt lat="46.24287" lon="3.14715">
        <ele>345.33</ele>
        <time>2017-08-27T08:43:20Z</time>
      </trkpt>
      <trkpt lat="46.24307" lon="3.14716">
        <ele>345.13</ele>
        <time>2017-08-27T08:43:38Z</time>
      </trkpt>
      <trkpt lat="46.24313" lon="3.14716">
        <ele>345.32</ele>
        <time>2017-08-27T08:43:45Z</time>
      </trkpt>
      <trkpt lat="46.24333" lon="3.14715">
        <ele>344.62</ele>
        <time>2017-08-27T08:44:03Z</time>
      </trkpt>
      <trkpt lat="46.24348" lon="3.14715">
        <ele>344.65</ele>
        <time>2017-08-27T08:44:19Z</time>
      </trkpt>
      <trkpt lat="46.2435" lon="3.14714">
        <ele>344.42</ele>
        <time>2017-08-27T08:44:43Z</time>
      </trkpt>
      <trkpt lat="46.24361" lon="3.14713">
        <ele>345.03</ele>
        <time>2017-08-27T08:45:05Z</time>
      </trkpt>
      <trkpt lat="46.2438" lon="3.14713">
        <ele>344.85</ele>
        <time>2017-08-27T08:45:23Z</time>
      </trkpt>
      <trkpt lat="46.24383" lon="3.14711">
        <ele>344.66</ele>
        <time>2017-08-27T08:45:46Z</time>
      </trkpt>
      <trkpt lat="46.24396" lon="3.14713">
        <ele>345.27</ele>
        <time>2017-08-27T08:46:01Z</time>
      </trkpt>
      <trkpt lat="46.24399" lon="3.14714">
        <ele>345.08</ele>
        <time>2017-08-27T08:46:04Z</time>
      </trkpt>
      <trkpt lat="46.24405" lon="3.14711">
        <ele>345.16</ele>
        <time>2017-08-27T08:46:09Z</time>
      </trkpt>
      <trkpt lat="46.24422" lon="3.14697">
        <ele>345.72</ele>
        <time>2017-08-27T08:46:27Z</time>
      </trkpt>
      <trkpt lat="46.24439" lon="3.14686">
        <ele>346.44</ele>
        <time>2017-08-27T08:46:43Z</time>
      </trkpt>
      <trkpt lat="46.24456" lon="3.14671">
        <ele>346.52</ele>
        <time>2017-08-27T08:47:01Z</time>
      </trkpt>
      <trkpt lat="46.24465" lon="3.14648">
        <ele>346.31</ele>
        <time>2017-08-27T08:47:18Z</time>
      </trkpt>
      <trkpt lat="46.24477" lon="3.14623">
        <ele>346.38</ele>
        <time>2017-08-27T08:47:37Z</time>
      </trkpt>
      <trkpt lat="46.24488" lon="3.14615">
        <ele>345.63</ele>
        <time>2017-08-27T08:47:52Z</time>
      </trkpt>
      <trkpt lat="46.2449" lon="3.1461">
        <ele>345.82</ele>
        <time>2017-08-27T08:47:58Z</time>
      </trkpt>
      <trkpt lat="46.24496" lon="3.14593">
        <ele>345.41</ele>
        <time>2017-08-27T08:48:10Z</time>
      </trkpt>
      <trkpt lat="46.24488" lon="3.14566">
        <ele>345.4</ele>
        <time>2017-08-27T08:48:28Z</time>
      </trkpt>
      <trkpt lat="46.2448" lon="3.14535">
        <ele>345.11</ele>
        <time>2017-08-27T08:48:49Z</time>
      </trkpt>
      <trkpt lat="46.24475" lon="3.14503">
        <ele>344.84</ele>
        <time>2017-08-27T08:49:09Z</time>
      </trkpt>
      <trkpt lat="46.24471" lon="3.14479">
        <ele>344.34</ele>
        <time>2017-08-27T08:49:26Z</time>
      </trkpt>
      <trkpt lat="46.24468" lon="3.14453">
        <ele>345.26</ele>
        <time>2017-08-27T08:49:43Z</time>
      </trkpt>
      <trkpt lat="46.24467" lon="3.14433">
        <ele>345.39</ele>
        <time>2017-08-27T08:49:55Z</time>
      </trkpt>
      <trkpt lat="46.24465" lon="3.14407">
        <ele>345.57</ele>
        <time>2017-08-27T08:50:10Z</time>
      </trkpt>
      <trkpt lat="46.2446" lon="3.14381">
        <ele>345.48</ele>
        <time>2017-08-27T08:50:28Z</time>
      </trkpt>
      <trkpt lat="46.2446" lon="3.14374">
        <ele>345.34</ele>
        <time>2017-08-27T08:50:33Z</time>
      </trkpt>
      <trkpt lat="46.24455" lon="3.14343">
        <ele>345.28</ele>
        <time>2017-08-27T08:50:50Z</time>
      </trkpt>
      <trkpt lat="46.24452" lon="3.14316">
        <ele>345.6</ele>
        <time>2017-08-27T08:51:05Z</time>
      </trkpt>
      <trkpt lat="46.24458" lon="3.14287">
        <ele>346.46</ele>
        <time>2017-08-27T08:51:21Z</time>
      </trkpt>
      <trkpt lat="46.24474" lon="3.14257">
        <ele>346.13</ele>
        <time>2017-08-27T08:51:42Z</time>
      </trkpt>
      <trkpt lat="46.24481" lon="3.1424">
        <ele>346.02</ele>
        <time>2017-08-27T08:51:54Z</time>
      </trkpt>
      <trkpt lat="46.2449" lon="3.14234">
        <ele>346.24</ele>
        <time>2017-08-27T08:52:04Z</time>
      </trkpt>
      <trkpt lat="46.24498" lon="3.14232">
        <ele>345.87</ele>
        <time>2017-08-27T08:52:21Z</time>
      </trkpt>
      <trkpt lat="46.24509" lon="3.14231">
        <ele>346.47</ele>
        <time>2017-08-27T08:52:42Z</time>
      </trkpt>
      <trkpt lat="46.24523" lon="3.14231">
        <ele>346.2</ele>
        <time>2017-08-27T08:53:01Z</time>
      </trkpt>
      <trkpt lat="46.24526" lon="3.1423">
        <ele>346.19</ele>
        <time>2017-08-27T08:53:03Z</time>
      </trkpt>
      <trkpt lat="46.24546" lon="3.14223">
        <ele>345.71</ele>
        <time>2017-08-27T08:53:20Z</time>
      </trkpt>
      <trkpt lat="46.24566" lon="3.14215">
        <ele>345.7</ele>
        <time>2017-08-27T08:53:36Z</time>
      </trkpt>
      <trkpt lat="46.24569" lon="3.14215">
        <ele>345.37</ele>
        <time>2017-08-27T08:53:39Z</time>
      </trkpt>
      <trkpt lat="46.24591" lon="3.14208">
        <ele>345.65</ele>
        <time>2017-08-27T08:53:58Z</time>
      </trkpt>
      <trkpt lat="46.24613" lon="3.14206">
        <ele>345.84</ele>
        <time>2017-08-27T08:54:17Z</time>
      </trkpt>
      <trkpt lat="46.2463" lon="3.14207">
        <ele>345.1</ele>
        <time>2017-08-27T08:54:32Z</time>
      </trkpt>
      <trkpt lat="46.24647" lon="3.14207">
        <ele>345.48</ele>
        <time>2017-08-27T08:54:47Z</time>
      </trkpt>
      <trkpt lat="46.24651" lon="3.14208">
        <ele>345.38</ele>
        <time>2017-08-27T08:54:51Z</time>
      </trkpt>
      <trkpt lat="46.2467" lon="3.14207">
        <ele>345.51</ele>
        <time>2017-08-27T08:55:08Z</time>
      </trkpt>
      <trkpt lat="46.24692" lon="3.14207">
        <ele>345.62</ele>
        <time>2017-08-27T08:55:26Z</time>
      </trkpt>
      <trkpt lat="46.24713" lon="3.14207">
        <ele>345.07</ele>
        <time>2017-08-27T08:55:43Z</time>
      </trkpt>
      <trkpt lat="46.2473" lon="3.14207">
        <ele>345.84</ele>
        <time>2017-08-27T08:55:59Z</time>
      </trkpt>
      <trkpt lat="46.2475" lon="3.14207">
        <ele>345.27</ele>
        <time>2017-08-27T08:56:15Z</time>
      </trkpt>
      <trkpt lat="46.24766" lon="3.14201">
        <ele>344.74</ele>
        <time>2017-08-27T08:56:29Z</time>
      </trkpt>
      <trkpt lat="46.24786" lon="3.14193">
        <ele>345.12</ele>
        <time>2017-08-27T08:56:47Z</time>
      </trkpt>
      <trkpt lat="46.24806" lon="3.14187">
        <ele>345.02</ele>
        <time>2017-08-27T08:57:05Z</time>
      </trkpt>
      <trkpt lat="46.2482" lon="3.14183">
        <ele>345.04</ele>
        <time>2017-08-27T08:57:17Z</time>
      </trkpt>
      <trkpt lat="46.24834" lon="3.14179">
        <ele>345.65</ele>
        <time>2017-08-27T08:57:30Z</time>
      </trkpt>
      <trkpt lat="46.24851" lon="3.14174">
        <ele>345.37</ele>
        <time>2017-08-27T08:57:44Z</time>
      </trkpt>
      <trkpt lat="46.24868" lon="3.14167">
        <ele>345.65</ele>
        <time>2017-08-27T08:57:58Z</time>
      </trkpt>
      <trkpt lat="46.24886" lon="3.1416">
        <ele>345.43</ele>
        <time>2017-08-27T08:58:14Z</time>
      </trkpt>
      <trkpt lat="46.24905" lon="3.14155">
        <ele>345.86</ele>
        <time>2017-08-27T08:58:30Z</time>
      </trkpt>
      <trkpt lat="46.24924" lon="3.1416">
        <ele>345.64</ele>
        <time>2017-08-27T08:58:47Z</time>
      </trkpt>
      <trkpt lat="46.24943" lon="3.1417">
        <ele>346.06</ele>
        <time>2017-08-27T08:59:04Z</time>
      </trkpt>
      <trkpt lat="46.24962" lon="3.14181">
        <ele>345.9</ele>
        <time>2017-08-27T08:59:20Z</time>
      </trkpt>
      <trkpt lat="46.24978" lon="3.14188">
        <ele>346.21</ele>
        <time>2017-08-27T08:59:35Z</time>
      </trkpt>
      <trkpt lat="46.24996" lon="3.14191">
        <ele>346.19</ele>
        <time>2017-08-27T08:59:51Z</time>
      </trkpt>
      <trkpt lat="46.25014" lon="3.14195">
        <ele>345.54</ele>
        <time>2017-08-27T09:00:07Z</time>
      </trkpt>
      <trkpt lat="46.25033" lon="3.14199">
        <ele>345.6</ele>
        <time>2017-08-27T09:00:23Z</time>
      </trkpt>
      <trkpt lat="46.25058" lon="3.14204">
        <ele>345.87</ele>
        <time>2017-08-27T09:00:43Z</time>
      </trkpt>
      <trkpt lat="46.25078" lon="3.14206">
        <ele>346.27</ele>
        <time>2017-08-27T09:01:00Z</time>
      </trkpt>
      <trkpt lat="46.25095" lon="3.14211">
        <ele>346.19</ele>
        <time>2017-08-27T09:01:15Z</time>
      </trkpt>
      <trkpt lat="46.25117" lon="3.14216">
        <ele>345.58</ele>
        <time>2017-08-27T09:01:35Z</time>
      </trkpt>
      <trkpt lat="46.25135" lon="3.14221">
        <ele>345.64</ele>
        <time>2017-08-27T09:01:51Z</time>
      </trkpt>
      <trkpt lat="46.25156" lon="3.14225">
        <ele>346.08</ele>
        <time>2017-08-27T09:02:09Z</time>
      </trkpt>
      <trkpt lat="46.25168" lon="3.14228">
        <ele>346.11</ele>
        <time>2017-08-27T09:02:19Z</time>
      </trkpt>
      <trkpt lat="46.25177" lon="3.1423">
        <ele>346.07</ele>
        <time>2017-08-27T09:02:27Z</time>
      </trkpt>
      <trkpt lat="46.25194" lon="3.14235">
        <ele>345.9</ele>
        <time>2017-08-27T09:02:41Z</time>
      </trkpt>
      <trkpt lat="46.25211" lon="3.14242">
        <ele>346.61</ele>
        <time>2017-08-27T09:02:56Z</time>
      </trkpt>
      <trkpt lat="46.25236" lon="3.14256">
        <ele>346.62</ele>
        <time>2017-08-27T09:03:18Z</time>
      </trkpt>
      <trkpt lat="46.25264" lon="3.1427">
        <ele>347.2</ele>
        <time>2017-08-27T09:03:43Z</time>
      </trkpt>
      <trkpt lat="46.25291" lon="3.14282">
        <ele>347.59</ele>
        <time>2017-08-27T09:04:07Z</time>
      </trkpt>
      <trkpt lat="46.2531" lon="3.1429">
        <ele>347.44</ele>
        <time>2017-08-27T09:04:25Z</time>
      </trkpt>
      <trkpt lat="46.25315" lon="3.14292">
        <ele>347.57</ele>
        <time>2017-08-27T09:04:29Z</time>
      </trkpt>
      <trkpt lat="46.25333" lon="3.14298">
        <ele>347.36</ele>
        <time>2017-08-27T09:04:46Z</time>
      </trkpt>
      <trkpt lat="46.25347" lon="3.14302">
        <ele>347.09</ele>
        <time>2017-08-27T09:05:01Z</time>
      </trkpt>
      <trkpt lat="46.25354" lon="3.14306">
        <ele>347.45</ele>
        <time>2017-08-27T09:05:08Z</time>
      </trkpt>
      <trkpt lat="46.25359" lon="3.14311">
        <ele>347.36</ele>
        <time>2017-08-27T09:05:13Z</time>
      </trkpt>
      <trkpt lat="46.25366" lon="3.14316">
        <ele>347.53</ele>
        <time>2017-08-27T09:05:19Z</time>
      </trkpt>
      <trkpt lat="46.25385" lon="3.14329">
        <ele>347.82</ele>
        <time>2017-08-27T09:05:35Z</time>
      </trkpt>
      <trkpt lat="46.25402" lon="3.14337">
        <ele>348.13</ele>
        <time>2017-08-27T09:05:51Z</time>
      </trkpt>
      <trkpt lat="46.25408" lon="3.14344">
        <ele>347.3</ele>
        <time>2017-08-27T09:10:45Z</time>
      </trkpt>
      <trkpt lat="46.2541" lon="3.14351">
        <ele>347.83</ele>
        <time>2017-08-27T09:11:04Z</time>
      </trkpt>
      <trkpt lat="46.2541" lon="3.14356">
        <ele>347.08</ele>
        <time>2017-08-27T09:11:22Z</time>
      </trkpt>
      <trkpt lat="46.25411" lon="3.14368">
        <ele>347.33</ele>
        <time>2017-08-27T09:11:30Z</time>
      </trkpt>
      <trkpt lat="46.25411" lon="3.1438">
        <ele>347.23</ele>
        <time>2017-08-27T09:11:38Z</time>
      </trkpt>
      <trkpt lat="46.25411" lon="3.1441">
        <ele>347.34</ele>
        <time>2017-08-27T09:11:57Z</time>
      </trkpt>
      <trkpt lat="46.25411" lon="3.14432">
        <ele>346.88</ele>
        <time>2017-08-27T09:12:11Z</time>
      </trkpt>
      <trkpt lat="46.25411" lon="3.14459">
        <ele>346.44</ele>
        <time>2017-08-27T09:12:27Z</time>
      </trkpt>
      <trkpt lat="46.2541" lon="3.14467">
        <ele>346</ele>
        <time>2017-08-27T09:12:32Z</time>
      </trkpt>
      <trkpt lat="46.2541" lon="3.14489">
        <ele>345.58</ele>
        <time>2017-08-27T09:12:46Z</time>
      </trkpt>
      <trkpt lat="46.25411" lon="3.14515">
        <ele>345.16</ele>
        <time>2017-08-27T09:13:01Z</time>
      </trkpt>
      <trkpt lat="46.2541" lon="3.14538">
        <ele>344.58</ele>
        <time>2017-08-27T09:13:15Z</time>
      </trkpt>
      <trkpt lat="46.2541" lon="3.14569">
        <ele>344.07</ele>
        <time>2017-08-27T09:13:33Z</time>
      </trkpt>
      <trkpt lat="46.25408" lon="3.14612">
        <ele>343.3</ele>
        <time>2017-08-27T09:13:56Z</time>
      </trkpt>
      <trkpt lat="46.25408" lon="3.1465">
        <ele>342.39</ele>
        <time>2017-08-27T09:14:17Z</time>
      </trkpt>
      <trkpt lat="46.25409" lon="3.14687">
        <ele>341.81</ele>
        <time>2017-08-27T09:14:38Z</time>
      </trkpt>
      <trkpt lat="46.25408" lon="3.14704">
        <ele>342.05</ele>
        <time>2017-08-27T09:14:47Z</time>
      </trkpt>
      <trkpt lat="46.25407" lon="3.14714">
        <ele>341.2</ele>
        <time>2017-08-27T09:14:52Z</time>
      </trkpt>
      <trkpt lat="46.25407" lon="3.1475">
        <ele>340.6</ele>
        <time>2017-08-27T09:15:12Z</time>
      </trkpt>
      <trkpt lat="46.25406" lon="3.14783">
        <ele>339.73</ele>
        <time>2017-08-27T09:15:30Z</time>
      </trkpt>
      <trkpt lat="46.25407" lon="3.14811">
        <ele>339.43</ele>
        <time>2017-08-27T09:15:46Z</time>
      </trkpt>
      <trkpt lat="46.25415" lon="3.14837">
        <ele>339.64</ele>
        <time>2017-08-27T09:16:02Z</time>
      </trkpt>
      <trkpt lat="46.2542" lon="3.14845">
        <ele>339.55</ele>
        <time>2017-08-27T09:16:08Z</time>
      </trkpt>
      <trkpt lat="46.25431" lon="3.14867">
        <ele>339.45</ele>
        <time>2017-08-27T09:16:24Z</time>
      </trkpt>
      <trkpt lat="46.25432" lon="3.14868">
        <ele>339.52</ele>
        <time>2017-08-27T09:16:25Z</time>
      </trkpt>
      <trkpt lat="46.25441" lon="3.14886">
        <ele>339.41</ele>
        <time>2017-08-27T09:16:40Z</time>
      </trkpt>
      <trkpt lat="46.25452" lon="3.14911">
        <ele>339.02</ele>
        <time>2017-08-27T09:16:58Z</time>
      </trkpt>
      <trkpt lat="46.25465" lon="3.14935">
        <ele>339.41</ele>
        <time>2017-08-27T09:17:17Z</time>
      </trkpt>
      <trkpt lat="46.25469" lon="3.14946">
        <ele>339.5</ele>
        <time>2017-08-27T09:17:24Z</time>
      </trkpt>
      <trkpt lat="46.25472" lon="3.14951">
        <ele>339.4</ele>
        <time>2017-08-27T09:17:28Z</time>
      </trkpt>
      <trkpt lat="46.25486" lon="3.14977">
        <ele>339.51</ele>
        <time>2017-08-27T09:17:47Z</time>
      </trkpt>
      <trkpt lat="46.25495" lon="3.14995">
        <ele>339.27</ele>
        <time>2017-08-27T09:18:00Z</time>
      </trkpt>
      <trkpt lat="46.255" lon="3.15003">
        <ele>339.18</ele>
        <time>2017-08-27T09:18:07Z</time>
      </trkpt>
      <trkpt lat="46.25503" lon="3.15011">
        <ele>339.84</ele>
        <time>2017-08-27T09:18:12Z</time>
      </trkpt>
      <trkpt lat="46.25503" lon="3.15014">
        <ele>338.92</ele>
        <time>2017-08-27T09:18:14Z</time>
      </trkpt>
      <trkpt lat="46.25505" lon="3.15021">
        <ele>339.03</ele>
        <time>2017-08-27T09:18:19Z</time>
      </trkpt>
      <trkpt lat="46.25504" lon="3.15031">
        <ele>338.83</ele>
        <time>2017-08-27T09:18:26Z</time>
      </trkpt>
      <trkpt lat="46.25501" lon="3.15035">
        <ele>338.43</ele>
        <time>2017-08-27T09:18:30Z</time>
      </trkpt>
      <trkpt lat="46.25497" lon="3.1504">
        <ele>338.82</ele>
        <time>2017-08-27T09:18:35Z</time>
      </trkpt>
      <trkpt lat="46.25494" lon="3.15043">
        <ele>338.07</ele>
        <time>2017-08-27T09:18:38Z</time>
      </trkpt>
      <trkpt lat="46.2548" lon="3.15062">
        <ele>337.75</ele>
        <time>2017-08-27T09:18:53Z</time>
      </trkpt>
      <trkpt lat="46.25478" lon="3.15064">
        <ele>338.1</ele>
        <time>2017-08-27T09:18:55Z</time>
      </trkpt>
      <trkpt lat="46.25467" lon="3.15076">
        <ele>337.47</ele>
        <time>2017-08-27T09:19:06Z</time>
      </trkpt>
      <trkpt lat="46.25451" lon="3.15095">
        <ele>335.74</ele>
        <time>2017-08-27T09:19:23Z</time>
      </trkpt>
      <trkpt lat="46.25433" lon="3.15113">
        <ele>335.13</ele>
        <time>2017-08-27T09:19:40Z</time>
      </trkpt>
      <trkpt lat="46.25428" lon="3.15119">
        <ele>335.24</ele>
        <time>2017-08-27T09:19:46Z</time>
      </trkpt>
      <trkpt lat="46.25409" lon="3.1514">
        <ele>334.31</ele>
        <time>2017-08-27T09:20:04Z</time>
      </trkpt>
      <trkpt lat="46.25384" lon="3.15165">
        <ele>332.88</ele>
        <time>2017-08-27T09:20:28Z</time>
      </trkpt>
      <trkpt lat="46.25361" lon="3.15191">
        <ele>331.25</ele>
        <time>2017-08-27T09:20:52Z</time>
      </trkpt>
      <trkpt lat="46.25339" lon="3.15211">
        <ele>330.52</ele>
        <time>2017-08-27T09:21:12Z</time>
      </trkpt>
      <trkpt lat="46.2531" lon="3.15225">
        <ele>329.42</ele>
        <time>2017-08-27T09:21:37Z</time>
      </trkpt>
      <trkpt lat="46.25296" lon="3.15229">
        <ele>329.19</ele>
        <time>2017-08-27T09:21:51Z</time>
      </trkpt>
      <trkpt lat="46.25278" lon="3.15235">
        <ele>329.17</ele>
        <time>2017-08-27T09:22:07Z</time>
      </trkpt>
      <trkpt lat="46.25259" lon="3.15241">
        <ele>328.4</ele>
        <time>2017-08-27T09:22:24Z</time>
      </trkpt>
      <trkpt lat="46.25237" lon="3.15248">
        <ele>327.68</ele>
        <time>2017-08-27T09:22:42Z</time>
      </trkpt>
      <trkpt lat="46.2523" lon="3.15251">
        <ele>327.74</ele>
        <time>2017-08-27T09:22:48Z</time>
      </trkpt>
      <trkpt lat="46.25224" lon="3.15253">
        <ele>327.74</ele>
        <time>2017-08-27T09:22:53Z</time>
      </trkpt>
      <trkpt lat="46.25224" lon="3.15275">
        <ele>326.81</ele>
        <time>2017-08-27T09:23:06Z</time>
      </trkpt>
      <trkpt lat="46.25231" lon="3.15309">
        <ele>325.69</ele>
        <time>2017-08-27T09:23:25Z</time>
      </trkpt>
      <trkpt lat="46.25233" lon="3.15321">
        <ele>325.31</ele>
        <time>2017-08-27T09:23:32Z</time>
      </trkpt>
      <trkpt lat="46.25238" lon="3.15347">
        <ele>325.15</ele>
        <time>2017-08-27T09:23:47Z</time>
      </trkpt>
      <trkpt lat="46.25243" lon="3.15369">
        <ele>324.66</ele>
        <time>2017-08-27T09:24:01Z</time>
      </trkpt>
      <trkpt lat="46.25241" lon="3.15403">
        <ele>323.55</ele>
        <time>2017-08-27T09:24:19Z</time>
      </trkpt>
      <trkpt lat="46.25229" lon="3.15425">
        <ele>322.65</ele>
        <time>2017-08-27T09:24:34Z</time>
      </trkpt>
      <trkpt lat="46.25213" lon="3.15446">
        <ele>322.74</ele>
        <time>2017-08-27T09:24:51Z</time>
      </trkpt>
      <trkpt lat="46.25201" lon="3.15468">
        <ele>321.7</ele>
        <time>2017-08-27T09:25:07Z</time>
      </trkpt>
      <trkpt lat="46.25191" lon="3.15492">
        <ele>321.67</ele>
        <time>2017-08-27T09:25:23Z</time>
      </trkpt>
      <trkpt lat="46.25183" lon="3.15513">
        <ele>321.88</ele>
        <time>2017-08-27T09:25:37Z</time>
      </trkpt>
      <trkpt lat="46.25174" lon="3.15537">
        <ele>321.54</ele>
        <time>2017-08-27T09:25:51Z</time>
      </trkpt>
      <trkpt lat="46.25164" lon="3.15567">
        <ele>320.67</ele>
        <time>2017-08-27T09:26:10Z</time>
      </trkpt>
      <trkpt lat="46.25152" lon="3.15592">
        <ele>319.89</ele>
        <time>2017-08-27T09:26:27Z</time>
      </trkpt>
      <trkpt lat="46.25133" lon="3.15627">
        <ele>319.88</ele>
        <time>2017-08-27T09:26:51Z</time>
      </trkpt>
      <trkpt lat="46.25116" lon="3.15658">
        <ele>318.38</ele>
        <time>2017-08-27T09:27:13Z</time>
      </trkpt>
      <trkpt lat="46.25104" lon="3.15678">
        <ele>318.3</ele>
        <time>2017-08-27T09:27:28Z</time>
      </trkpt>
      <trkpt lat="46.25092" lon="3.15698">
        <ele>317.97</ele>
        <time>2017-08-27T09:27:45Z</time>
      </trkpt>
      <trkpt lat="46.25074" lon="3.15727">
        <ele>315.93</ele>
        <time>2017-08-27T09:28:06Z</time>
      </trkpt>
      <trkpt lat="46.25054" lon="3.15748">
        <ele>314.6</ele>
        <time>2017-08-27T09:28:25Z</time>
      </trkpt>
      <trkpt lat="46.25039" lon="3.15765">
        <ele>314.78</ele>
        <time>2017-08-27T09:28:42Z</time>
      </trkpt>
      <trkpt lat="46.25024" lon="3.15779">
        <ele>314.73</ele>
        <time>2017-08-27T09:28:57Z</time>
      </trkpt>
      <trkpt lat="46.25015" lon="3.15799">
        <ele>315.39</ele>
        <time>2017-08-27T09:29:10Z</time>
      </trkpt>
      <trkpt lat="46.25011" lon="3.15809">
        <ele>315.25</ele>
        <time>2017-08-27T09:29:16Z</time>
      </trkpt>
      <trkpt lat="46.25009" lon="3.15823">
        <ele>316.16</ele>
        <time>2017-08-27T09:29:25Z</time>
      </trkpt>
      <trkpt lat="46.25008" lon="3.15851">
        <ele>316.45</ele>
        <time>2017-08-27T09:29:42Z</time>
      </trkpt>
      <trkpt lat="46.25007" lon="3.15855">
        <ele>316.5</ele>
        <time>2017-08-27T09:29:45Z</time>
      </trkpt>
      <trkpt lat="46.25008" lon="3.1587">
        <ele>317</ele>
        <time>2017-08-27T09:29:56Z</time>
      </trkpt>
      <trkpt lat="46.25002" lon="3.15888">
        <ele>317.2</ele>
        <time>2017-08-27T09:30:06Z</time>
      </trkpt>
      <trkpt lat="46.25001" lon="3.15893">
        <ele>317.04</ele>
        <time>2017-08-27T09:30:09Z</time>
      </trkpt>
      <trkpt lat="46.24999" lon="3.15916">
        <ele>317.65</ele>
        <time>2017-08-27T09:30:22Z</time>
      </trkpt>
      <trkpt lat="46.24998" lon="3.15923">
        <ele>317.87</ele>
        <time>2017-08-27T09:30:26Z</time>
      </trkpt>
      <trkpt lat="46.24996" lon="3.15952">
        <ele>317.9</ele>
        <time>2017-08-27T09:30:41Z</time>
      </trkpt>
      <trkpt lat="46.24993" lon="3.15979">
        <ele>318.62</ele>
        <time>2017-08-27T09:30:57Z</time>
      </trkpt>
      <trkpt lat="46.24985" lon="3.16011">
        <ele>318.09</ele>
        <time>2017-08-27T09:31:16Z</time>
      </trkpt>
      <trkpt lat="46.24979" lon="3.16035">
        <ele>318.36</ele>
        <time>2017-08-27T09:31:31Z</time>
      </trkpt>
      <trkpt lat="46.24974" lon="3.16056">
        <ele>319.26</ele>
        <time>2017-08-27T09:31:45Z</time>
      </trkpt>
      <trkpt lat="46.24969" lon="3.16081">
        <ele>318.67</ele>
        <time>2017-08-27T09:32:01Z</time>
      </trkpt>
      <trkpt lat="46.24968" lon="3.16089">
        <ele>318.56</ele>
        <time>2017-08-27T09:32:06Z</time>
      </trkpt>
      <trkpt lat="46.24961" lon="3.16118">
        <ele>318.61</ele>
        <time>2017-08-27T09:32:23Z</time>
      </trkpt>
      <trkpt lat="46.24958" lon="3.16138">
        <ele>318.73</ele>
        <time>2017-08-27T09:32:35Z</time>
      </trkpt>
      <trkpt lat="46.24956" lon="3.16161">
        <ele>318.33</ele>
        <time>2017-08-27T09:32:50Z</time>
      </trkpt>
      <trkpt lat="46.24956" lon="3.16176">
        <ele>318</ele>
        <time>2017-08-27T09:32:59Z</time>
      </trkpt>
      <trkpt lat="46.24956" lon="3.1619">
        <ele>317.44</ele>
        <time>2017-08-27T09:33:08Z</time>
      </trkpt>
      <trkpt lat="46.24956" lon="3.16216">
        <ele>317.02</ele>
        <time>2017-08-27T09:33:25Z</time>
      </trkpt>
      <trkpt lat="46.24954" lon="3.16238">
        <ele>316.19</ele>
        <time>2017-08-27T09:33:38Z</time>
      </trkpt>
      <trkpt lat="46.24953" lon="3.16245">
        <ele>315.84</ele>
        <time>2017-08-27T09:33:42Z</time>
      </trkpt>
      <trkpt lat="46.24953" lon="3.16262">
        <ele>315.73</ele>
        <time>2017-08-27T09:33:51Z</time>
      </trkpt>
      <trkpt lat="46.24951" lon="3.16287">
        <ele>315.2</ele>
        <time>2017-08-27T09:34:06Z</time>
      </trkpt>
      <trkpt lat="46.2495" lon="3.16319">
        <ele>314.22</ele>
        <time>2017-08-27T09:34:26Z</time>
      </trkpt>
      <trkpt lat="46.24948" lon="3.16341">
        <ele>314.01</ele>
        <time>2017-08-27T09:34:40Z</time>
      </trkpt>
      <trkpt lat="46.24948" lon="3.16343">
        <ele>313.97</ele>
        <time>2017-08-27T09:34:41Z</time>
      </trkpt>
      <trkpt lat="46.24948" lon="3.16349">
        <ele>314.17</ele>
        <time>2017-08-27T09:34:45Z</time>
      </trkpt>
      <trkpt lat="46.24944" lon="3.16374">
        <ele>313.26</ele>
        <time>2017-08-27T09:35:01Z</time>
      </trkpt>
      <trkpt lat="46.24938" lon="3.16396">
        <ele>312.71</ele>
        <time>2017-08-27T09:35:17Z</time>
      </trkpt>
      <trkpt lat="46.24937" lon="3.164">
        <ele>312.64</ele>
        <time>2017-08-27T09:35:20Z</time>
      </trkpt>
      <trkpt lat="46.24935" lon="3.16408">
        <ele>312.49</ele>
        <time>2017-08-27T09:35:25Z</time>
      </trkpt>
      <trkpt lat="46.24933" lon="3.16414">
        <ele>312.8</ele>
        <time>2017-08-27T09:35:29Z</time>
      </trkpt>
      <trkpt lat="46.24924" lon="3.16434">
        <ele>312.77</ele>
        <time>2017-08-27T09:35:44Z</time>
      </trkpt>
      <trkpt lat="46.24913" lon="3.16454">
        <ele>312.89</ele>
        <time>2017-08-27T09:36:00Z</time>
      </trkpt>
      <trkpt lat="46.24906" lon="3.16473">
        <ele>312.54</ele>
        <time>2017-08-27T09:36:13Z</time>
      </trkpt>
      <trkpt lat="46.24904" lon="3.16481">
        <ele>312.41</ele>
        <time>2017-08-27T09:36:18Z</time>
      </trkpt>
      <trkpt lat="46.24898" lon="3.16503">
        <ele>312.38</ele>
        <time>2017-08-27T09:36:33Z</time>
      </trkpt>
      <trkpt lat="46.24894" lon="3.1652">
        <ele>311.85</ele>
        <time>2017-08-27T09:36:45Z</time>
      </trkpt>
      <trkpt lat="46.24887" lon="3.16544">
        <ele>311.59</ele>
        <time>2017-08-27T09:37:00Z</time>
      </trkpt>
      <trkpt lat="46.2488" lon="3.16561">
        <ele>311.53</ele>
        <time>2017-08-27T09:37:12Z</time>
      </trkpt>
      <trkpt lat="46.24872" lon="3.16576">
        <ele>310.95</ele>
        <time>2017-08-27T09:37:25Z</time>
      </trkpt>
      <trkpt lat="46.24863" lon="3.1659">
        <ele>310.91</ele>
        <time>2017-08-27T09:37:38Z</time>
      </trkpt>
      <trkpt lat="46.24859" lon="3.16596">
        <ele>311.16</ele>
        <time>2017-08-27T09:37:42Z</time>
      </trkpt>
      <trkpt lat="46.24843" lon="3.16617">
        <ele>310.85</ele>
        <time>2017-08-27T09:38:00Z</time>
      </trkpt>
      <trkpt lat="46.24829" lon="3.16635">
        <ele>310.76</ele>
        <time>2017-08-27T09:38:16Z</time>
      </trkpt>
      <trkpt lat="46.24814" lon="3.16655">
        <ele>310.58</ele>
        <time>2017-08-27T09:38:34Z</time>
      </trkpt>
      <trkpt lat="46.24799" lon="3.16672">
        <ele>310.12</ele>
        <time>2017-08-27T09:38:50Z</time>
      </trkpt>
      <trkpt lat="46.24797" lon="3.16676">
        <ele>310.18</ele>
        <time>2017-08-27T09:38:53Z</time>
      </trkpt>
      <trkpt lat="46.24783" lon="3.16693">
        <ele>310.15</ele>
        <time>2017-08-27T09:39:08Z</time>
      </trkpt>
      <trkpt lat="46.24773" lon="3.16707">
        <ele>309.59</ele>
        <time>2017-08-27T09:39:19Z</time>
      </trkpt>
      <trkpt lat="46.24761" lon="3.16722">
        <ele>308.64</ele>
        <time>2017-08-27T09:39:33Z</time>
      </trkpt>
      <trkpt lat="46.24746" lon="3.16737">
        <ele>306.84</ele>
        <time>2017-08-27T09:39:48Z</time>
      </trkpt>
      <trkpt lat="46.24732" lon="3.16753">
        <ele>305.64</ele>
        <time>2017-08-27T09:40:03Z</time>
      </trkpt>
      <trkpt lat="46.24721" lon="3.16764">
        <ele>305.35</ele>
        <time>2017-08-27T09:40:14Z</time>
      </trkpt>
      <trkpt lat="46.24719" lon="3.16764">
        <ele>305.09</ele>
        <time>2017-08-27T09:40:16Z</time>
      </trkpt>
      <trkpt lat="46.24713" lon="3.16754">
        <ele>305.19</ele>
        <time>2017-08-27T09:40:24Z</time>
      </trkpt>
      <trkpt lat="46.24707" lon="3.16744">
        <ele>305.11</ele>
        <time>2017-08-27T09:40:32Z</time>
      </trkpt>
      <trkpt lat="46.24703" lon="3.16741">
        <ele>304.69</ele>
        <time>2017-08-27T09:40:37Z</time>
      </trkpt>
      <trkpt lat="46.24691" lon="3.16718">
        <ele>305.19</ele>
        <time>2017-08-27T09:40:54Z</time>
      </trkpt>
      <trkpt lat="46.2468" lon="3.16688">
        <ele>305.46</ele>
        <time>2017-08-27T09:41:15Z</time>
      </trkpt>
      <trkpt lat="46.24675" lon="3.16667">
        <ele>305.95</ele>
        <time>2017-08-27T09:41:30Z</time>
      </trkpt>
      <trkpt lat="46.2467" lon="3.16645">
        <ele>306.43</ele>
        <time>2017-08-27T09:41:44Z</time>
      </trkpt>
      <trkpt lat="46.24666" lon="3.16635">
        <ele>306.51</ele>
        <time>2017-08-27T09:41:51Z</time>
      </trkpt>
      <trkpt lat="46.24665" lon="3.16634">
        <ele>306.66</ele>
        <time>2017-08-27T09:41:53Z</time>
      </trkpt>
      <trkpt lat="46.2466" lon="3.1663">
        <ele>306.92</ele>
        <time>2017-08-27T09:42:08Z</time>
      </trkpt>
      <trkpt lat="46.24648" lon="3.16634">
        <ele>305.32</ele>
        <time>2017-08-27T09:42:27Z</time>
      </trkpt>
      <trkpt lat="46.24636" lon="3.16639">
        <ele>304.44</ele>
        <time>2017-08-27T09:42:48Z</time>
      </trkpt>
      <trkpt lat="46.24621" lon="3.16643">
        <ele>303.86</ele>
        <time>2017-08-27T09:43:08Z</time>
      </trkpt>
      <trkpt lat="46.24605" lon="3.16649">
        <ele>302.69</ele>
        <time>2017-08-27T09:43:25Z</time>
      </trkpt>
      <trkpt lat="46.24586" lon="3.1665">
        <ele>300.45</ele>
        <time>2017-08-27T09:43:46Z</time>
      </trkpt>
      <trkpt lat="46.24573" lon="3.16653">
        <ele>297.7</ele>
        <time>2017-08-27T09:44:02Z</time>
      </trkpt>
      <trkpt lat="46.24559" lon="3.16663">
        <ele>294.73</ele>
        <time>2017-08-27T09:44:23Z</time>
      </trkpt>
      <trkpt lat="46.24548" lon="3.16669">
        <ele>294</ele>
        <time>2017-08-27T09:44:31Z</time>
      </trkpt>
      <trkpt lat="46.24533" lon="3.16682">
        <ele>290.41</ele>
        <time>2017-08-27T09:44:45Z</time>
      </trkpt>
      <trkpt lat="46.24523" lon="3.16687">
        <ele>288.21</ele>
        <time>2017-08-27T09:45:00Z</time>
      </trkpt>
      <trkpt lat="46.24514" lon="3.16691">
        <ele>285.14</ele>
        <time>2017-08-27T09:45:12Z</time>
      </trkpt>
      <trkpt lat="46.24506" lon="3.16693">
        <ele>282.04</ele>
        <time>2017-08-27T09:45:24Z</time>
      </trkpt>
      <trkpt lat="46.24499" lon="3.16697">
        <ele>278.73</ele>
        <time>2017-08-27T09:45:35Z</time>
      </trkpt>
      <trkpt lat="46.24497" lon="3.16698">
        <ele>278.51</ele>
        <time>2017-08-27T09:45:38Z</time>
      </trkpt>
      <trkpt lat="46.24483" lon="3.16694">
        <ele>274.72</ele>
        <time>2017-08-27T09:46:01Z</time>
      </trkpt>
      <trkpt lat="46.24472" lon="3.16701">
        <ele>271.71</ele>
        <time>2017-08-27T09:46:12Z</time>
      </trkpt>
      <trkpt lat="46.24458" lon="3.16705">
        <ele>268.25</ele>
        <time>2017-08-27T09:46:30Z</time>
      </trkpt>
      <trkpt lat="46.24448" lon="3.16712">
        <ele>265.24</ele>
        <time>2017-08-27T09:46:46Z</time>
      </trkpt>
      <trkpt lat="46.2444" lon="3.16708">
        <ele>263.19</ele>
        <time>2017-08-27T09:47:04Z</time>
      </trkpt>
      <trkpt lat="46.24441" lon="3.16708">
        <ele>262.9</ele>
        <time>2017-08-27T09:47:07Z</time>
      </trkpt>
      <trkpt lat="46.24439" lon="3.16696">
        <ele>262.73</ele>
        <time>2017-08-27T09:47:21Z</time>
      </trkpt>
      <trkpt lat="46.24439" lon="3.16678">
        <ele>262.41</ele>
        <time>2017-08-27T09:47:36Z</time>
      </trkpt>
      <trkpt lat="46.24437" lon="3.16666">
        <ele>262.04</ele>
        <time>2017-08-27T09:47:43Z</time>
      </trkpt>
      <trkpt lat="46.24435" lon="3.16636">
        <ele>262.31</ele>
        <time>2017-08-27T09:47:57Z</time>
      </trkpt>
      <trkpt lat="46.24436" lon="3.16619">
        <ele>262.3</ele>
        <time>2017-08-27T09:48:12Z</time>
      </trkpt>
      <trkpt lat="46.24437" lon="3.16611">
        <ele>261.77</ele>
        <time>2017-08-27T09:48:25Z</time>
      </trkpt>
      <trkpt lat="46.24442" lon="3.16591">
        <ele>261.77</ele>
        <time>2017-08-27T09:48:42Z</time>
      </trkpt>
      <trkpt lat="46.24444" lon="3.16589">
        <ele>261.5</ele>
        <time>2017-08-27T09:48:43Z</time>
      </trkpt>
      <trkpt lat="46.24429" lon="3.16553">
        <ele>261.83</ele>
        <time>2017-08-27T09:48:53Z</time>
      </trkpt>
      <trkpt lat="46.2442" lon="3.16539">
        <ele>261.61</ele>
        <time>2017-08-27T09:49:12Z</time>
      </trkpt>
      <trkpt lat="46.2442" lon="3.16536">
        <ele>261.29</ele>
        <time>2017-08-27T09:49:57Z</time>
      </trkpt>
      <trkpt lat="46.2442" lon="3.16521">
        <ele>261.96</ele>
        <time>2017-08-27T09:50:13Z</time>
      </trkpt>
      <trkpt lat="46.24422" lon="3.16519">
        <ele>261.89</ele>
        <time>2017-08-27T09:50:15Z</time>
      </trkpt>
      <trkpt lat="46.24421" lon="3.16517">
        <ele>262.56</ele>
        <time>2017-08-27T09:50:17Z</time>
      </trkpt>
      <trkpt lat="46.24422" lon="3.16508">
        <ele>262.27</ele>
        <time>2017-08-27T09:51:03Z</time>
      </trkpt>
      <trkpt lat="46.24419" lon="3.16511">
        <ele>262.01</ele>
        <time>2017-08-27T09:51:24Z</time>
      </trkpt>
      <trkpt lat="46.24419" lon="3.1651">
        <ele>262.37</ele>
        <time>2017-08-27T09:51:30Z</time>
      </trkpt>
      <trkpt lat="46.24412" lon="3.16504">
        <ele>261.97</ele>
        <time>2017-08-27T09:51:58Z</time>
      </trkpt>
      <trkpt lat="46.24413" lon="3.16499">
        <ele>262.83</ele>
        <time>2017-08-27T09:52:37Z</time>
      </trkpt>
      <trkpt lat="46.2442" lon="3.16492">
        <ele>264.59</ele>
        <time>2017-08-27T09:52:59Z</time>
      </trkpt>
      <trkpt lat="46.24423" lon="3.16484">
        <ele>267.76</ele>
        <time>2017-08-27T09:53:13Z</time>
      </trkpt>
      <trkpt lat="46.24422" lon="3.16473">
        <ele>270.79</ele>
        <time>2017-08-27T09:53:37Z</time>
      </trkpt>
      <trkpt lat="46.24427" lon="3.16475">
        <ele>273.14</ele>
        <time>2017-08-27T09:53:50Z</time>
      </trkpt>
      <trkpt lat="46.24427" lon="3.16474">
        <ele>273.92</ele>
        <time>2017-08-27T09:53:53Z</time>
      </trkpt>
      <trkpt lat="46.24432" lon="3.16466">
        <ele>277.59</ele>
        <time>2017-08-27T09:54:09Z</time>
      </trkpt>
      <trkpt lat="46.24428" lon="3.16456">
        <ele>280.68</ele>
        <time>2017-08-27T09:54:26Z</time>
      </trkpt>
      <trkpt lat="46.2442" lon="3.16451">
        <ele>278.84</ele>
        <time>2017-08-27T09:54:47Z</time>
      </trkpt>
      <trkpt lat="46.24417" lon="3.16443">
        <ele>278.29</ele>
        <time>2017-08-27T09:55:03Z</time>
      </trkpt>
      <trkpt lat="46.2441" lon="3.16437">
        <ele>279.11</ele>
        <time>2017-08-27T09:55:17Z</time>
      </trkpt>
      <trkpt lat="46.24409" lon="3.16439">
        <ele>279.21</ele>
        <time>2017-08-27T09:55:36Z</time>
      </trkpt>
      <trkpt lat="46.24415" lon="3.16443">
        <ele>277.93</ele>
        <time>2017-08-27T09:55:59Z</time>
      </trkpt>
      <trkpt lat="46.2442" lon="3.16448">
        <ele>279.9</ele>
        <time>2017-08-27T09:56:17Z</time>
      </trkpt>
      <trkpt lat="46.24426" lon="3.16447">
        <ele>281.27</ele>
        <time>2017-08-27T09:56:34Z</time>
      </trkpt>
      <trkpt lat="46.24429" lon="3.16445">
        <ele>281.82</ele>
        <time>2017-08-27T09:57:02Z</time>
      </trkpt>
      <trkpt lat="46.24431" lon="3.16442">
        <ele>280.72</ele>
        <time>2017-08-27T09:57:14Z</time>
      </trkpt>
      <trkpt lat="46.24431" lon="3.16435">
        <ele>277.57</ele>
        <time>2017-08-27T09:57:24Z</time>
      </trkpt>
      <trkpt lat="46.24433" lon="3.16429">
        <ele>276.04</ele>
        <time>2017-08-27T09:57:31Z</time>
      </trkpt>
      <trkpt lat="46.2443" lon="3.16428">
        <ele>272.92</ele>
        <time>2017-08-27T09:57:45Z</time>
      </trkpt>
      <trkpt lat="46.24425" lon="3.16426">
        <ele>269.68</ele>
        <time>2017-08-27T09:57:57Z</time>
      </trkpt>
      <trkpt lat="46.2442" lon="3.16429">
        <ele>266.47</ele>
        <time>2017-08-27T09:58:08Z</time>
      </trkpt>
      <trkpt lat="46.24418" lon="3.16428">
        <ele>263.61</ele>
        <time>2017-08-27T09:58:16Z</time>
      </trkpt>
      <trkpt lat="46.24419" lon="3.16428">
        <ele>262.76</ele>
        <time>2017-08-27T09:58:19Z</time>
      </trkpt>
      <trkpt lat="46.24419" lon="3.16424">
        <ele>262.53</ele>
        <time>2017-08-27T09:58:25Z</time>
      </trkpt>
      <trkpt lat="46.24414" lon="3.16408">
        <ele>262.81</ele>
        <time>2017-08-27T09:58:53Z</time>
      </trkpt>
      <trkpt lat="46.24414" lon="3.16404">
        <ele>262.72</ele>
        <time>2017-08-27T09:58:57Z</time>
      </trkpt>
      <trkpt lat="46.24415" lon="3.16402">
        <ele>262.18</ele>
        <time>2017-08-27T09:59:00Z</time>
      </trkpt>
      <trkpt lat="46.24414" lon="3.16395">
        <ele>262.45</ele>
        <time>2017-08-27T09:59:04Z</time>
      </trkpt>
      <trkpt lat="46.24418" lon="3.16385">
        <ele>262.57</ele>
        <time>2017-08-27T09:59:12Z</time>
      </trkpt>
      <trkpt lat="46.24418" lon="3.16381">
        <ele>262.52</ele>
        <time>2017-08-27T09:59:15Z</time>
      </trkpt>
      <trkpt lat="46.24418" lon="3.16377">
        <ele>262.41</ele>
        <time>2017-08-27T09:59:20Z</time>
      </trkpt>
      <trkpt lat="46.24418" lon="3.16372">
        <ele>262.85</ele>
        <time>2017-08-27T09:59:24Z</time>
      </trkpt>
      <trkpt lat="46.244" lon="3.16332">
        <ele>262.91</ele>
        <time>2017-08-27T09:59:42Z</time>
      </trkpt>
      <trkpt lat="46.24393" lon="3.1631">
        <ele>263.14</ele>
        <time>2017-08-27T09:59:57Z</time>
      </trkpt>
      <trkpt lat="46.24389" lon="3.16298">
        <ele>263.19</ele>
        <time>2017-08-27T10:00:08Z</time>
      </trkpt>
      <trkpt lat="46.2439" lon="3.16294">
        <ele>263.71</ele>
        <time>2017-08-27T10:00:12Z</time>
      </trkpt>
      <trkpt lat="46.24393" lon="3.16282">
        <ele>263.74</ele>
        <time>2017-08-27T10:00:20Z</time>
      </trkpt>
      <trkpt lat="46.24385" lon="3.16249">
        <ele>263.01</ele>
        <time>2017-08-27T10:00:38Z</time>
      </trkpt>
      <trkpt lat="46.24382" lon="3.16222">
        <ele>262.88</ele>
        <time>2017-08-27T10:00:57Z</time>
      </trkpt>
      <trkpt lat="46.24382" lon="3.16189">
        <ele>263.28</ele>
        <time>2017-08-27T10:01:16Z</time>
      </trkpt>
      <trkpt lat="46.24382" lon="3.16163">
        <ele>264.23</ele>
        <time>2017-08-27T10:01:34Z</time>
      </trkpt>
      <trkpt lat="46.24377" lon="3.16153">
        <ele>264</ele>
        <time>2017-08-27T10:01:55Z</time>
      </trkpt>
      <trkpt lat="46.24375" lon="3.16153">
        <ele>264.23</ele>
        <time>2017-08-27T10:02:22Z</time>
      </trkpt>
      <trkpt lat="46.24367" lon="3.16151">
        <ele>263.67</ele>
        <time>2017-08-27T10:02:51Z</time>
      </trkpt>
      <trkpt lat="46.24366" lon="3.16151">
        <ele>264.32</ele>
        <time>2017-08-27T10:02:55Z</time>
      </trkpt>
      <trkpt lat="46.2436" lon="3.16149">
        <ele>264.27</ele>
        <time>2017-08-27T10:03:26Z</time>
      </trkpt>
      <trkpt lat="46.24359" lon="3.16149">
        <ele>263.98</ele>
        <time>2017-08-27T10:03:28Z</time>
      </trkpt>
      <trkpt lat="46.24368" lon="3.1614">
        <ele>262.63</ele>
        <time>2017-08-27T10:03:54Z</time>
      </trkpt>
      <trkpt lat="46.24382" lon="3.16126">
        <ele>262.82</ele>
        <time>2017-08-27T10:04:15Z</time>
      </trkpt>
      <trkpt lat="46.2439" lon="3.16105">
        <ele>262.67</ele>
        <time>2017-08-27T10:04:35Z</time>
      </trkpt>
      <trkpt lat="46.24393" lon="3.16082">
        <ele>262.36</ele>
        <time>2017-08-27T10:04:57Z</time>
      </trkpt>
      <trkpt lat="46.24392" lon="3.16052">
        <ele>263.16</ele>
        <time>2017-08-27T10:05:19Z</time>
      </trkpt>
      <trkpt lat="46.24387" lon="3.16026">
        <ele>264.12</ele>
        <time>2017-08-27T10:05:39Z</time>
      </trkpt>
      <trkpt lat="46.24376" lon="3.16003">
        <ele>263.98</ele>
        <time>2017-08-27T10:06:00Z</time>
      </trkpt>
      <trkpt lat="46.24371" lon="3.15998">
        <ele>263.26</ele>
        <time>2017-08-27T10:06:06Z</time>
      </trkpt>
      <trkpt lat="46.24368" lon="3.15994">
        <ele>263.15</ele>
        <time>2017-08-27T10:06:13Z</time>
      </trkpt>
      <trkpt lat="46.24366" lon="3.15993">
        <ele>262.75</ele>
        <time>2017-08-27T10:06:18Z</time>
      </trkpt>
      <trkpt lat="46.24345" lon="3.15977">
        <ele>262.89</ele>
        <time>2017-08-27T10:06:43Z</time>
      </trkpt>
      <trkpt lat="46.24335" lon="3.15962">
        <ele>263.17</ele>
        <time>2017-08-27T10:06:51Z</time>
      </trkpt>
      <trkpt lat="46.24331" lon="3.15957">
        <ele>261.98</ele>
        <time>2017-08-27T10:07:12Z</time>
      </trkpt>
      <trkpt lat="46.24316" lon="3.1594">
        <ele>263.05</ele>
        <time>2017-08-27T10:07:27Z</time>
      </trkpt>
      <trkpt lat="46.24309" lon="3.15929">
        <ele>263.92</ele>
        <time>2017-08-27T10:07:46Z</time>
      </trkpt>
      <trkpt lat="46.24294" lon="3.15923">
        <ele>261.06</ele>
        <time>2017-08-27T10:08:05Z</time>
      </trkpt>
      <trkpt lat="46.24298" lon="3.15924">
        <ele>262.27</ele>
        <time>2017-08-27T10:08:17Z</time>
      </trkpt>
      <trkpt lat="46.24306" lon="3.1591">
        <ele>264.06</ele>
        <time>2017-08-27T10:08:36Z</time>
      </trkpt>
      <trkpt lat="46.24306" lon="3.15894">
        <ele>262.51</ele>
        <time>2017-08-27T10:08:54Z</time>
      </trkpt>
      <trkpt lat="46.24307" lon="3.15885">
        <ele>261.84</ele>
        <time>2017-08-27T10:09:11Z</time>
      </trkpt>
      <trkpt lat="46.24308" lon="3.15877">
        <ele>261.57</ele>
        <time>2017-08-27T10:09:31Z</time>
      </trkpt>
      <trkpt lat="46.24314" lon="3.15878">
        <ele>262.21</ele>
        <time>2017-08-27T10:09:46Z</time>
      </trkpt>
      <trkpt lat="46.24326" lon="3.15867">
        <ele>262.21</ele>
        <time>2017-08-27T10:10:05Z</time>
      </trkpt>
      <trkpt lat="46.24334" lon="3.15866">
        <ele>262.82</ele>
        <time>2017-08-27T10:10:29Z</time>
      </trkpt>
      <trkpt lat="46.24336" lon="3.15865">
        <ele>263</ele>
        <time>2017-08-27T10:11:06Z</time>
      </trkpt>
      <trkpt lat="46.2434" lon="3.15873">
        <ele>263.38</ele>
        <time>2017-08-27T10:11:26Z</time>
      </trkpt>
      <trkpt lat="46.24343" lon="3.15873">
        <ele>262.82</ele>
        <time>2017-08-27T10:11:33Z</time>
      </trkpt>
      <trkpt lat="46.24352" lon="3.15855">
        <ele>264.05</ele>
        <time>2017-08-27T10:11:46Z</time>
      </trkpt>
      <trkpt lat="46.24355" lon="3.15834">
        <ele>264.4</ele>
        <time>2017-08-27T10:11:57Z</time>
      </trkpt>
      <trkpt lat="46.24356" lon="3.1583">
        <ele>264.8</ele>
        <time>2017-08-27T10:12:00Z</time>
      </trkpt>
      <trkpt lat="46.24355" lon="3.15816">
        <ele>264.5</ele>
        <time>2017-08-27T10:12:09Z</time>
      </trkpt>
      <trkpt lat="46.24356" lon="3.15809">
        <ele>264.29</ele>
        <time>2017-08-27T10:12:13Z</time>
      </trkpt>
      <trkpt lat="46.24358" lon="3.15786">
        <ele>263.59</ele>
        <time>2017-08-27T10:12:29Z</time>
      </trkpt>
      <trkpt lat="46.24354" lon="3.15754">
        <ele>264.43</ele>
        <time>2017-08-27T10:12:54Z</time>
      </trkpt>
      <trkpt lat="46.24356" lon="3.15745">
        <ele>266.34</ele>
        <time>2017-08-27T10:13:04Z</time>
      </trkpt>
      <trkpt lat="46.24354" lon="3.15743">
        <ele>266.62</ele>
        <time>2017-08-27T10:13:34Z</time>
      </trkpt>
      <trkpt lat="46.24355" lon="3.15741">
        <ele>266.66</ele>
        <time>2017-08-27T10:13:47Z</time>
      </trkpt>
      <trkpt lat="46.24348" lon="3.15726">
        <ele>267.71</ele>
        <time>2017-08-27T10:14:01Z</time>
      </trkpt>
      <trkpt lat="46.24342" lon="3.15721">
        <ele>264.62</ele>
        <time>2017-08-27T10:14:13Z</time>
      </trkpt>
      <trkpt lat="46.24335" lon="3.15723">
        <ele>262.46</ele>
        <time>2017-08-27T10:14:24Z</time>
      </trkpt>
      <trkpt lat="46.24329" lon="3.15717">
        <ele>262.93</ele>
        <time>2017-08-27T10:14:36Z</time>
      </trkpt>
      <trkpt lat="46.24311" lon="3.15716">
        <ele>263.13</ele>
        <time>2017-08-27T10:14:56Z</time>
      </trkpt>
      <trkpt lat="46.24294" lon="3.1571">
        <ele>262.74</ele>
        <time>2017-08-27T10:15:12Z</time>
      </trkpt>
      <trkpt lat="46.24268" lon="3.15704">
        <ele>263.29</ele>
        <time>2017-08-27T10:15:28Z</time>
      </trkpt>
      <trkpt lat="46.24254" lon="3.15705">
        <ele>263.45</ele>
        <time>2017-08-27T10:15:45Z</time>
      </trkpt>
      <trkpt lat="46.24243" lon="3.15704">
        <ele>264.01</ele>
        <time>2017-08-27T10:15:57Z</time>
      </trkpt>
      <trkpt lat="46.24229" lon="3.15697">
        <ele>264.72</ele>
        <time>2017-08-27T10:16:12Z</time>
      </trkpt>
      <trkpt lat="46.24217" lon="3.15688">
        <ele>265.65</ele>
        <time>2017-08-27T10:16:27Z</time>
      </trkpt>
      <trkpt lat="46.24215" lon="3.15688">
        <ele>265.73</ele>
        <time>2017-08-27T10:16:29Z</time>
      </trkpt>
      <trkpt lat="46.2421" lon="3.15682">
        <ele>264.83</ele>
        <time>2017-08-27T10:16:45Z</time>
      </trkpt>
      <trkpt lat="46.24201" lon="3.15674">
        <ele>265.2</ele>
        <time>2017-08-27T10:16:59Z</time>
      </trkpt>
      <trkpt lat="46.24199" lon="3.15673">
        <ele>264.51</ele>
        <time>2017-08-27T10:17:04Z</time>
      </trkpt>
      <trkpt lat="46.24196" lon="3.15665">
        <ele>264.28</ele>
        <time>2017-08-27T10:17:12Z</time>
      </trkpt>
      <trkpt lat="46.24177" lon="3.15647">
        <ele>264.01</ele>
        <time>2017-08-27T10:17:36Z</time>
      </trkpt>
      <trkpt lat="46.24159" lon="3.15629">
        <ele>263.71</ele>
        <time>2017-08-27T10:17:51Z</time>
      </trkpt>
      <trkpt lat="46.24152" lon="3.15622">
        <ele>263.26</ele>
        <time>2017-08-27T10:17:59Z</time>
      </trkpt>
      <trkpt lat="46.2415" lon="3.15618">
        <ele>264.25</ele>
        <time>2017-08-27T10:18:04Z</time>
      </trkpt>
      <trkpt lat="46.24148" lon="3.15616">
        <ele>264.01</ele>
        <time>2017-08-27T10:18:07Z</time>
      </trkpt>
      <trkpt lat="46.24141" lon="3.15611">
        <ele>263.78</ele>
        <time>2017-08-27T10:18:16Z</time>
      </trkpt>
      <trkpt lat="46.24132" lon="3.15605">
        <ele>263.28</ele>
        <time>2017-08-27T10:18:28Z</time>
      </trkpt>
      <trkpt lat="46.24115" lon="3.15572">
        <ele>264.6</ele>
        <time>2017-08-27T10:18:45Z</time>
      </trkpt>
      <trkpt lat="46.24103" lon="3.15532">
        <ele>264.15</ele>
        <time>2017-08-27T10:19:05Z</time>
      </trkpt>
      <trkpt lat="46.24101" lon="3.15501">
        <ele>264.14</ele>
        <time>2017-08-27T10:19:25Z</time>
      </trkpt>
      <trkpt lat="46.24109" lon="3.15481">
        <ele>266.91</ele>
        <time>2017-08-27T10:19:45Z</time>
      </trkpt>
      <trkpt lat="46.24118" lon="3.15468">
        <ele>268.08</ele>
        <time>2017-08-27T10:20:00Z</time>
      </trkpt>
      <trkpt lat="46.24119" lon="3.15466">
        <ele>267.95</ele>
        <time>2017-08-27T10:20:02Z</time>
      </trkpt>
      <trkpt lat="46.24125" lon="3.15454">
        <ele>266.87</ele>
        <time>2017-08-27T10:20:16Z</time>
      </trkpt>
      <trkpt lat="46.24133" lon="3.15448">
        <ele>266.24</ele>
        <time>2017-08-27T10:20:21Z</time>
      </trkpt>
      <trkpt lat="46.24137" lon="3.15438">
        <ele>265.9</ele>
        <time>2017-08-27T10:20:27Z</time>
      </trkpt>
      <trkpt lat="46.24147" lon="3.1542">
        <ele>265.24</ele>
        <time>2017-08-27T10:20:41Z</time>
      </trkpt>
      <trkpt lat="46.24149" lon="3.15402">
        <ele>264.28</ele>
        <time>2017-08-27T10:21:03Z</time>
      </trkpt>
      <trkpt lat="46.2415" lon="3.15402">
        <ele>264.46</ele>
        <time>2017-08-27T10:21:05Z</time>
      </trkpt>
      <trkpt lat="46.24157" lon="3.15395">
        <ele>266.26</ele>
        <time>2017-08-27T10:21:19Z</time>
      </trkpt>
      <trkpt lat="46.2416" lon="3.15394">
        <ele>266.33</ele>
        <time>2017-08-27T10:21:24Z</time>
      </trkpt>
      <trkpt lat="46.24162" lon="3.15393">
        <ele>266.55</ele>
        <time>2017-08-27T10:21:28Z</time>
      </trkpt>
      <trkpt lat="46.24175" lon="3.15389">
        <ele>265.29</ele>
        <time>2017-08-27T10:21:45Z</time>
      </trkpt>
      <trkpt lat="46.24199" lon="3.15374">
        <ele>263.51</ele>
        <time>2017-08-27T10:22:02Z</time>
      </trkpt>
      <trkpt lat="46.24204" lon="3.1537">
        <ele>263.66</ele>
        <time>2017-08-27T10:22:22Z</time>
      </trkpt>
      <trkpt lat="46.24207" lon="3.15365">
        <ele>263.72</ele>
        <time>2017-08-27T10:22:39Z</time>
      </trkpt>
      <trkpt lat="46.2421" lon="3.15365">
        <ele>264.52</ele>
        <time>2017-08-27T10:22:44Z</time>
      </trkpt>
      <trkpt lat="46.24215" lon="3.15364">
        <ele>263.15</ele>
        <time>2017-08-27T10:22:57Z</time>
      </trkpt>
      <trkpt lat="46.24217" lon="3.15359">
        <ele>263.83</ele>
        <time>2017-08-27T10:23:17Z</time>
      </trkpt>
      <trkpt lat="46.24242" lon="3.15351">
        <ele>263.86</ele>
        <time>2017-08-27T10:23:36Z</time>
      </trkpt>
      <trkpt lat="46.24263" lon="3.15335">
        <ele>263.67</ele>
        <time>2017-08-27T10:23:55Z</time>
      </trkpt>
      <trkpt lat="46.24271" lon="3.15326">
        <ele>263.72</ele>
        <time>2017-08-27T10:24:15Z</time>
      </trkpt>
      <trkpt lat="46.24272" lon="3.15326">
        <ele>263.46</ele>
        <time>2017-08-27T10:24:16Z</time>
      </trkpt>
      <trkpt lat="46.24273" lon="3.15326">
        <ele>263.33</ele>
        <time>2017-08-27T10:24:18Z</time>
      </trkpt>
      <trkpt lat="46.24272" lon="3.15324">
        <ele>263.54</ele>
        <time>2017-08-27T10:24:20Z</time>
      </trkpt>
      <trkpt lat="46.24279" lon="3.15316">
        <ele>264.02</ele>
        <time>2017-08-27T10:24:34Z</time>
      </trkpt>
      <trkpt lat="46.2429" lon="3.15304">
        <ele>263.87</ele>
        <time>2017-08-27T10:24:54Z</time>
      </trkpt>
      <trkpt lat="46.24307" lon="3.15285">
        <ele>263.95</ele>
        <time>2017-08-27T10:25:12Z</time>
      </trkpt>
      <trkpt lat="46.24321" lon="3.1527">
        <ele>265.99</ele>
        <time>2017-08-27T10:25:30Z</time>
      </trkpt>
      <trkpt lat="46.24331" lon="3.15257">
        <ele>269.11</ele>
        <time>2017-08-27T10:25:46Z</time>
      </trkpt>
      <trkpt lat="46.24342" lon="3.15255">
        <ele>268.76</ele>
        <time>2017-08-27T10:26:04Z</time>
      </trkpt>
      <trkpt lat="46.24341" lon="3.15253">
        <ele>266.24</ele>
        <time>2017-08-27T10:26:19Z</time>
      </trkpt>
      <trkpt lat="46.24339" lon="3.15236">
        <ele>266.81</ele>
        <time>2017-08-27T10:26:37Z</time>
      </trkpt>
      <trkpt lat="46.24332" lon="3.15227">
        <ele>267.08</ele>
        <time>2017-08-27T10:26:57Z</time>
      </trkpt>
      <trkpt lat="46.24334" lon="3.15232">
        <ele>267.24</ele>
        <time>2017-08-27T10:27:26Z</time>
      </trkpt>
      <trkpt lat="46.24337" lon="3.15231">
        <ele>267.08</ele>
        <time>2017-08-27T10:27:57Z</time>
      </trkpt>
      <trkpt lat="46.24332" lon="3.15223">
        <ele>266.79</ele>
        <time>2017-08-27T10:28:15Z</time>
      </trkpt>
      <trkpt lat="46.24323" lon="3.15208">
        <ele>265.31</ele>
        <time>2017-08-27T10:28:36Z</time>
      </trkpt>
      <trkpt lat="46.24322" lon="3.15208">
        <ele>265.33</ele>
        <time>2017-08-27T10:28:39Z</time>
      </trkpt>
      <trkpt lat="46.24301" lon="3.15197">
        <ele>265.97</ele>
        <time>2017-08-27T10:28:57Z</time>
      </trkpt>
      <trkpt lat="46.24294" lon="3.15193">
        <ele>265.95</ele>
        <time>2017-08-27T10:29:02Z</time>
      </trkpt>
      <trkpt lat="46.2429" lon="3.15189">
        <ele>266.2</ele>
        <time>2017-08-27T10:29:07Z</time>
      </trkpt>
      <trkpt lat="46.24285" lon="3.15181">
        <ele>266.86</ele>
        <time>2017-08-27T10:29:27Z</time>
      </trkpt>
      <trkpt lat="46.24282" lon="3.15179">
        <ele>268.33</ele>
        <time>2017-08-27T10:29:48Z</time>
      </trkpt>
      <trkpt lat="46.24273" lon="3.15161">
        <ele>271.11</ele>
        <time>2017-08-27T10:30:07Z</time>
      </trkpt>
      <trkpt lat="46.24261" lon="3.15138">
        <ele>273.71</ele>
        <time>2017-08-27T10:30:27Z</time>
      </trkpt>
      <trkpt lat="46.24249" lon="3.15127">
        <ele>276.96</ele>
        <time>2017-08-27T10:30:42Z</time>
      </trkpt>
      <trkpt lat="46.24235" lon="3.15114">
        <ele>279.9</ele>
        <time>2017-08-27T10:31:02Z</time>
      </trkpt>
      <trkpt lat="46.24229" lon="3.15112">
        <ele>280.55</ele>
        <time>2017-08-27T10:31:08Z</time>
      </trkpt>
      <trkpt lat="46.24222" lon="3.15111">
        <ele>281.92</ele>
        <time>2017-08-27T10:31:24Z</time>
      </trkpt>
      <trkpt lat="46.24225" lon="3.15114">
        <ele>283.47</ele>
        <time>2017-08-27T10:31:29Z</time>
      </trkpt>
      <trkpt lat="46.24234" lon="3.15125">
        <ele>284.9</ele>
        <time>2017-08-27T10:31:42Z</time>
      </trkpt>
      <trkpt lat="46.24241" lon="3.15148">
        <ele>287.08</ele>
        <time>2017-08-27T10:32:01Z</time>
      </trkpt>
      <trkpt lat="46.24248" lon="3.15171">
        <ele>290.15</ele>
        <time>2017-08-27T10:32:17Z</time>
      </trkpt>
      <trkpt lat="46.24244" lon="3.15181">
        <ele>292.2</ele>
        <time>2017-08-27T10:32:31Z</time>
      </trkpt>
      <trkpt lat="46.24238" lon="3.15168">
        <ele>292.62</ele>
        <time>2017-08-27T10:32:53Z</time>
      </trkpt>
      <trkpt lat="46.24235" lon="3.15165">
        <ele>292.47</ele>
        <time>2017-08-27T10:33:10Z</time>
      </trkpt>
      <trkpt lat="46.24234" lon="3.15154">
        <ele>292.46</ele>
        <time>2017-08-27T10:33:39Z</time>
      </trkpt>
      <trkpt lat="46.24227" lon="3.15151">
        <ele>292.97</ele>
        <time>2017-08-27T10:33:44Z</time>
      </trkpt>
      <trkpt lat="46.24217" lon="3.15138">
        <ele>294.68</ele>
        <time>2017-08-27T10:34:01Z</time>
      </trkpt>
      <trkpt lat="46.24204" lon="3.15134">
        <ele>296.49</ele>
        <time>2017-08-27T10:34:15Z</time>
      </trkpt>
      <trkpt lat="46.24199" lon="3.15126">
        <ele>296.83</ele>
        <time>2017-08-27T10:34:32Z</time>
      </trkpt>
      <trkpt lat="46.24193" lon="3.1513">
        <ele>298.6</ele>
        <time>2017-08-27T10:34:43Z</time>
      </trkpt>
      <trkpt lat="46.24177" lon="3.15137">
        <ele>301.16</ele>
        <time>2017-08-27T10:35:00Z</time>
      </trkpt>
      <trkpt lat="46.24172" lon="3.1515">
        <ele>302.17</ele>
        <time>2017-08-27T10:35:20Z</time>
      </trkpt>
      <trkpt lat="46.24177" lon="3.1516">
        <ele>302.07</ele>
        <time>2017-08-27T10:35:41Z</time>
      </trkpt>
      <trkpt lat="46.2417" lon="3.15148">
        <ele>301.93</ele>
        <time>2017-08-27T10:36:02Z</time>
      </trkpt>
      <trkpt lat="46.24165" lon="3.15145">
        <ele>302.62</ele>
        <time>2017-08-27T10:36:25Z</time>
      </trkpt>
      <trkpt lat="46.24159" lon="3.15149">
        <ele>302.01</ele>
        <time>2017-08-27T10:36:35Z</time>
      </trkpt>
      <trkpt lat="46.24149" lon="3.15141">
        <ele>303.51</ele>
        <time>2017-08-27T10:36:50Z</time>
      </trkpt>
      <trkpt lat="46.24144" lon="3.15127">
        <ele>303.84</ele>
        <time>2017-08-27T10:37:10Z</time>
      </trkpt>
      <trkpt lat="46.24139" lon="3.15137">
        <ele>304.33</ele>
        <time>2017-08-27T10:37:27Z</time>
      </trkpt>
      <trkpt lat="46.24139" lon="3.1515">
        <ele>304.18</ele>
        <time>2017-08-27T10:37:43Z</time>
      </trkpt>
      <trkpt lat="46.24135" lon="3.15152">
        <ele>304.71</ele>
        <time>2017-08-27T10:37:51Z</time>
      </trkpt>
      <trkpt lat="46.24125" lon="3.15158">
        <ele>304.49</ele>
        <time>2017-08-27T10:38:00Z</time>
      </trkpt>
      <trkpt lat="46.2411" lon="3.15174">
        <ele>304.98</ele>
        <time>2017-08-27T10:38:17Z</time>
      </trkpt>
      <trkpt lat="46.24108" lon="3.15176">
        <ele>305.7</ele>
        <time>2017-08-27T10:38:19Z</time>
      </trkpt>
      <trkpt lat="46.241" lon="3.15194">
        <ele>305.76</ele>
        <time>2017-08-27T10:38:37Z</time>
      </trkpt>
      <trkpt lat="46.24101" lon="3.15199">
        <ele>306.67</ele>
        <time>2017-08-27T10:38:59Z</time>
      </trkpt>
      <trkpt lat="46.24083" lon="3.15202">
        <ele>307.29</ele>
        <time>2017-08-27T10:39:19Z</time>
      </trkpt>
      <trkpt lat="46.2407" lon="3.15206">
        <ele>308.06</ele>
        <time>2017-08-27T10:39:33Z</time>
      </trkpt>
      <trkpt lat="46.24063" lon="3.15213">
        <ele>308.53</ele>
        <time>2017-08-27T10:39:45Z</time>
      </trkpt>
      <trkpt lat="46.24059" lon="3.15213">
        <ele>308.36</ele>
        <time>2017-08-27T10:39:48Z</time>
      </trkpt>
      <trkpt lat="46.2404" lon="3.15225">
        <ele>309.99</ele>
        <time>2017-08-27T10:40:07Z</time>
      </trkpt>
      <trkpt lat="46.24029" lon="3.15226">
        <ele>310.08</ele>
        <time>2017-08-27T10:40:18Z</time>
      </trkpt>
      <trkpt lat="46.24006" lon="3.15227">
        <ele>312.16</ele>
        <time>2017-08-27T10:40:38Z</time>
      </trkpt>
      <trkpt lat="46.24002" lon="3.15227">
        <ele>312.07</ele>
        <time>2017-08-27T10:40:51Z</time>
      </trkpt>
      <trkpt lat="46.23996" lon="3.15233">
        <ele>312.97</ele>
        <time>2017-08-27T10:41:03Z</time>
      </trkpt>
      <trkpt lat="46.23997" lon="3.1523">
        <ele>312.68</ele>
        <time>2017-08-27T10:41:23Z</time>
      </trkpt>
      <trkpt lat="46.23994" lon="3.15231">
        <ele>312.8</ele>
        <time>2017-08-27T10:41:28Z</time>
      </trkpt>
      <trkpt lat="46.2399" lon="3.15234">
        <ele>312.99</ele>
        <time>2017-08-27T10:41:32Z</time>
      </trkpt>
      <trkpt lat="46.23976" lon="3.1524">
        <ele>314.23</ele>
        <time>2017-08-27T10:41:51Z</time>
      </trkpt>
      <trkpt lat="46.23974" lon="3.15242">
        <ele>314.25</ele>
        <time>2017-08-27T10:41:59Z</time>
      </trkpt>
      <trkpt lat="46.23972" lon="3.15243">
        <ele>314.52</ele>
        <time>2017-08-27T10:42:01Z</time>
      </trkpt>
      <trkpt lat="46.2396" lon="3.15249">
        <ele>319.32</ele>
        <time>2017-08-27T10:49:54Z</time>
      </trkpt>
      <trkpt lat="46.23947" lon="3.15249">
        <ele>319.08</ele>
        <time>2017-08-27T10:50:16Z</time>
      </trkpt>
      <trkpt lat="46.2394" lon="3.1525">
        <ele>319.42</ele>
        <time>2017-08-27T10:50:23Z</time>
      </trkpt>
      <trkpt lat="46.23925" lon="3.15247">
        <ele>319.63</ele>
        <time>2017-08-27T10:50:36Z</time>
      </trkpt>
      <trkpt lat="46.23916" lon="3.15252">
        <ele>320.5</ele>
        <time>2017-08-27T10:50:54Z</time>
      </trkpt>
      <trkpt lat="46.23911" lon="3.15261">
        <ele>320.52</ele>
        <time>2017-08-27T10:51:00Z</time>
      </trkpt>
    </trkseg>
  </trk>
</gpx>